Wetterdaten: Montag, 26.01.2015
Datum Zeit Temp. Aussen +5cm Feuchte Auss Luftdruck Regen Sonnenschein Regendauer Solar Windben
26.01.2015 00:00 2,2 C 1,1 C 98 % 1026,3 hPa 0,0 l/m 0 min 0 min 0 W/m 12,6 km/h (3 Bft)
26.01.2015 00:02 2,2 C 1,1 C 98 % 1026,3 hPa 0,0 l/m 0 min 0 min 0 W/m 16,7 km/h (3 Bft)
26.01.2015 00:06 2,2 C 1,1 C 98 % 1026,3 hPa 0,0 l/m 0 min 0 min 0 W/m 12,6 km/h (3 Bft)
26.01.2015 00:08 2,2 C 1,1 C 98 % 1026,3 hPa 0,0 l/m 0 min 0 min 0 W/m 10,5 km/h (2 Bft)
26.01.2015 00:10 2,2 C 1,1 C 98 % 1026,3 hPa 0,0 l/m 0 min 0 min 0 W/m 6,3 km/h (2 Bft)
26.01.2015 00:12 2,2 C 1,1 C 98 % 1026,3 hPa 0,0 l/m 0 min 0 min 0 W/m 10,5 km/h (2 Bft)
26.01.2015 00:14 2,2 C 1,1 C 98 % 1026,3 hPa 0,0 l/m 0 min 0 min 0 W/m 8,4 km/h (2 Bft)
26.01.2015 00:16 2,2 C 1,1 C 98 % 1026,3 hPa 0,0 l/m 0 min 0 min 0 W/m 6,3 km/h (2 Bft)
26.01.2015 00:18 2,2 C 1,1 C 98 % 1026,3 hPa 0,0 l/m 0 min 0 min 0 W/m 10,5 km/h (2 Bft)
26.01.2015 00:20 2,2 C 1,1 C 98 % 1026,4 hPa 0,0 l/m 0 min 0 min 0 W/m 10,5 km/h (2 Bft)
26.01.2015 00:22 2,2 C 1,1 C 98 % 1026,3 hPa 0,0 l/m 0 min 0 min 0 W/m 8,4 km/h (2 Bft)
26.01.2015 00:24 2,2 C 1,1 C 98 % 1026,2 hPa 0,0 l/m 0 min 0 min 0 W/m 12,6 km/h (3 Bft)
26.01.2015 00:26 2,2 C 1,1 C 98 % 1026,2 hPa 0,2 l/m 0 min 0 min 0 W/m 10,5 km/h (2 Bft)
26.01.2015 00:28 2,2 C 1,1 C 98 % 1026,1 hPa 0,0 l/m 0 min 0 min 0 W/m 16,7 km/h (3 Bft)
26.01.2015 00:30 2,2 C 1,1 C 98 % 1026,1 hPa 0,0 l/m 0 min 0 min 0 W/m 14,6 km/h (3 Bft)
26.01.2015 00:32 2,2 C 1,1 C 98 % 1026,1 hPa 0,0 l/m 0 min 0 min 0 W/m 12,6 km/h (3 Bft)
26.01.2015 00:34 2,2 C 1,1 C 98 % 1026,0 hPa 0,0 l/m 0 min 0 min 0 W/m 14,6 km/h (3 Bft)
26.01.2015 00:36 2,2 C 1,1 C 98 % 1026,0 hPa 0,0 l/m 0 min 0 min 0 W/m 10,5 km/h (2 Bft)
26.01.2015 00:38 2,2 C 1,1 C 98 % 1026,1 hPa 0,0 l/m 0 min 0 min 0 W/m 12,6 km/h (3 Bft)
26.01.2015 00:40 2,2 C 1,1 C 98 % 1026,1 hPa 0,0 l/m 0 min 0 min 0 W/m 8,4 km/h (2 Bft)
26.01.2015 00:42 2,2 C 1,1 C 98 % 1026,1 hPa 0,0 l/m 0 min 0 min 0 W/m 12,6 km/h (3 Bft)
26.01.2015 00:44 2,2 C 1,1 C 98 % 1026,1 hPa 0,0 l/m 0 min 0 min 0 W/m 10,5 km/h (2 Bft)
26.01.2015 00:46 2,2 C 1,1 C 98 % 1026,1 hPa 0,0 l/m 0 min 0 min 0 W/m 10,5 km/h (2 Bft)
26.01.2015 00:48 2,2 C 1,1 C 98 % 1026,1 hPa 0,0 l/m 0 min 0 min 0 W/m 10,5 km/h (2 Bft)
26.01.2015 00:50 2,2 C 1,1 C 98 % 1026,1 hPa 0,0 l/m 0 min 0 min 0 W/m 12,6 km/h (3 Bft)
26.01.2015 00:52 2,2 C 1,1 C 98 % 1026,0 hPa 0,0 l/m 0 min 0 min 0 W/m 12,6 km/h (3 Bft)
26.01.2015 00:54 2,3 C 1,1 C 98 % 1025,9 hPa 0,0 l/m 0 min 0 min 0 W/m 10,5 km/h (2 Bft)
26.01.2015 00:56 2,2 C 1,1 C 98 % 1025,9 hPa 0,0 l/m 0 min 0 min 0 W/m 8,4 km/h (2 Bft)
26.01.2015 00:58 2,3 C 1,1 C 98 % 1026,0 hPa 0,0 l/m 0 min 0 min 0 W/m 8,4 km/h (2 Bft)
26.01.2015 01:00 2,2 C 1,1 C 98 % 1025,9 hPa 0,0 l/m 0 min 0 min 0 W/m 10,5 km/h (2 Bft)
26.01.2015 01:02 2,2 C 1,1 C 98 % 1025,9 hPa 0,0 l/m 0 min 0 min 0 W/m 14,6 km/h (3 Bft)
26.01.2015 01:04 2,3 C 1,1 C 98 % 1026,0 hPa 0,0 l/m 0 min 0 min 0 W/m 12,6 km/h (3 Bft)
26.01.2015 01:06 2,3 C 1,1 C 98 % 1026,0 hPa 0,0 l/m 0 min 0 min 0 W/m 10,5 km/h (2 Bft)
26.01.2015 01:08 2,3 C 1,1 C 98 % 1025,9 hPa 0,0 l/m 0 min 0 min 0 W/m 10,5 km/h (2 Bft)
26.01.2015 01:10 2,3 C 1,1 C 98 % 1025,9 hPa 0,0 l/m 0 min 0 min 0 W/m 10,5 km/h (2 Bft)
26.01.2015 01:12 2,2 C 1,1 C 98 % 1025,9 hPa 0,0 l/m 0 min 0 min 0 W/m 8,4 km/h (2 Bft)
26.01.2015 01:14 2,3 C 1,1 C 98 % 1025,8 hPa 0,0 l/m 0 min 0 min 0 W/m 10,5 km/h (2 Bft)
26.01.2015 01:16 2,3 C 1,1 C 98 % 1025,7 hPa 0,0 l/m 0 min 0 min 0 W/m 14,6 km/h (3 Bft)
26.01.2015 01:18 2,3 C 1,1 C 98 % 1025,8 hPa 0,0 l/m 0 min 2 min 0 W/m 14,6 km/h (3 Bft)
26.01.2015 01:20 2,3 C 1,1 C 98 % 1025,8 hPa 0,0 l/m 0 min 2 min 0 W/m 8,4 km/h (2 Bft)
26.01.2015 01:22 2,2 C 1,1 C 98 % 1025,7 hPa 0,0 l/m 0 min 2 min 0 W/m 10,5 km/h (2 Bft)
26.01.2015 01:24 2,2 C 1,1 C 98 % 1025,8 hPa 0,0 l/m 0 min 2 min 0 W/m 8,4 km/h (2 Bft)
26.01.2015 01:26 2,3 C 1,1 C 98 % 1025,7 hPa 0,2 l/m 0 min 2 min 0 W/m 14,6 km/h (3 Bft)
26.01.2015 01:28 2,2 C 1,1 C 98 % 1025,7 hPa 0,0 l/m 0 min 2 min 0 W/m 12,6 km/h (3 Bft)
26.01.2015 01:30 2,2 C 1,1 C 98 % 1025,7 hPa 0,0 l/m 0 min 2 min 0 W/m 12,6 km/h (3 Bft)
26.01.2015 01:32 2,2 C 1,1 C 98 % 1025,7 hPa 0,0 l/m 0 min 2 min 0 W/m 12,6 km/h (3 Bft)
26.01.2015 01:34 2,2 C 1,1 C 98 % 1025,7 hPa 0,0 l/m 0 min 2 min 0 W/m 14,6 km/h (3 Bft)
26.01.2015 01:36 2,2 C 1,1 C 98 % 1025,6 hPa 0,0 l/m 0 min 2 min 0 W/m 14,6 km/h (3 Bft)
26.01.2015 01:38 2,2 C 1,1 C 98 % 1025,6 hPa 0,0 l/m 0 min 2 min 0 W/m 18,8 km/h (3 Bft)
26.01.2015 01:40 2,2 C 1,1 C 98 % 1025,6 hPa 0,0 l/m 0 min 2 min 0 W/m 14,6 km/h (3 Bft)
26.01.2015 01:42 2,2 C 1,1 C 98 % 1025,6 hPa 0,2 l/m 0 min 2 min 0 W/m 10,5 km/h (2 Bft)
26.01.2015 01:44 2,2 C 1,1 C 98 % 1025,6 hPa 0,0 l/m 0 min 2 min 0 W/m 12,6 km/h (3 Bft)
26.01.2015 01:46 2,2 C 1,1 C 98 % 1025,6 hPa 0,0 l/m 0 min 2 min 0 W/m 14,6 km/h (3 Bft)
26.01.2015 01:48 2,2 C 1,1 C 98 % 1025,6 hPa 0,0 l/m 0 min 2 min 0 W/m 10,5 km/h (2 Bft)
26.01.2015 01:50 2,2 C 1,1 C 98 % 1025,6 hPa 0,0 l/m 0 min 2 min 0 W/m 12,6 km/h (3 Bft)
26.01.2015 01:52 2,2 C 1,1 C 98 % 1025,6 hPa 0,0 l/m 0 min 2 min 0 W/m 8,4 km/h (2 Bft)
26.01.2015 01:54 2,2 C 1,1 C 98 % 1025,6 hPa 0,0 l/m 0 min 2 min 0 W/m 6,3 km/h (2 Bft)
26.01.2015 01:56 2,2 C 1,1 C 98 % 1025,5 hPa 0,0 l/m 0 min 2 min 0 W/m 12,6 km/h (3 Bft)
26.01.2015 01:58 2,2 C 1,1 C 98 % 1025,5 hPa 0,0 l/m 0 min 2 min 0 W/m 10,5 km/h (2 Bft)
26.01.2015 02:00 2,2 C 1,1 C 98 % 1025,6 hPa 0,0 l/m 0 min 2 min 0 W/m 12,6 km/h (3 Bft)
26.01.2015 02:02 2,2 C 1,1 C 98 % 1025,5 hPa 0,0 l/m 0 min 2 min 0 W/m 8,4 km/h (2 Bft)
26.01.2015 02:04 2,2 C 1,1 C 98 % 1025,5 hPa 0,0 l/m 0 min 2 min 0 W/m 12,6 km/h (3 Bft)
26.01.2015 02:06 2,2 C 1,1 C 98 % 1025,5 hPa 0,0 l/m 0 min 2 min 0 W/m 16,7 km/h (3 Bft)
26.01.2015 02:08 2,2 C 1,1 C 98 % 1025,5 hPa 0,0 l/m 0 min 2 min 0 W/m 12,6 km/h (3 Bft)
26.01.2015 02:10 2,2 C 1,1 C 98 % 1025,5 hPa 0,2 l/m 0 min 2 min 0 W/m 14,6 km/h (3 Bft)
26.01.2015 02:12 2,2 C 1,1 C 98 % 1025,6 hPa 0,0 l/m 0 min 2 min 0 W/m 10,5 km/h (2 Bft)
26.01.2015 02:14 2,2 C 1,1 C 98 % 1025,6 hPa 0,0 l/m 0 min 2 min 0 W/m 12,6 km/h (3 Bft)
26.01.2015 02:16 2,2 C 1,1 C 98 % 1025,5 hPa 0,0 l/m 0 min 2 min 0 W/m 14,6 km/h (3 Bft)
26.01.2015 02:18 2,2 C 1,1 C 98 % 1025,5 hPa 0,0 l/m 0 min 2 min 0 W/m 14,6 km/h (3 Bft)
26.01.2015 02:20 2,2 C 1,1 C 98 % 1025,5 hPa 0,2 l/m 0 min 2 min 0 W/m 12,6 km/h (3 Bft)
26.01.2015 02:22 2,2 C 1,1 C 98 % 1025,5 hPa 0,0 l/m 0 min 2 min 0 W/m 16,7 km/h (3 Bft)
26.01.2015 02:24 2,2 C 1,1 C 98 % 1025,5 hPa 0,0 l/m 0 min 2 min 0 W/m 12,6 km/h (3 Bft)
26.01.2015 02:26 2,2 C 1,1 C 98 % 1025,4 hPa 0,0 l/m 0 min 2 min 0 W/m 18,8 km/h (3 Bft)
26.01.2015 02:28 2,2 C 1,1 C 98 % 1025,4 hPa 0,0 l/m 0 min 2 min 0 W/m 14,6 km/h (3 Bft)
26.01.2015 02:30 2,2 C 1,1 C 98 % 1025,3 hPa 0,0 l/m 0 min 2 min 0 W/m 18,8 km/h (3 Bft)
26.01.2015 02:32 2,2 C 1,1 C 98 % 1025,2 hPa 0,0 l/m 0 min 2 min 0 W/m 14,6 km/h (3 Bft)
26.01.2015 02:34 2,2 C 1,1 C 98 % 1025,2 hPa 0,0 l/m 0 min 2 min 0 W/m 14,6 km/h (3 Bft)
26.01.2015 02:36 2,2 C 1,1 C 98 % 1025,2 hPa 0,0 l/m 0 min 2 min 0 W/m 14,6 km/h (3 Bft)
26.01.2015 02:38 2,3 C 1,1 C 98 % 1025,1 hPa 0,0 l/m 0 min 2 min 0 W/m 16,7 km/h (3 Bft)
26.01.2015 02:40 2,2 C 1,1 C 98 % 1025,1 hPa 0,0 l/m 0 min 2 min 0 W/m 18,8 km/h (3 Bft)
26.01.2015 02:42 2,3 C 1,1 C 98 % 1025,0 hPa 0,0 l/m 0 min 2 min 0 W/m 14,6 km/h (3 Bft)
26.01.2015 02:44 2,2 C 1,1 C 98 % 1025,0 hPa 0,0 l/m 0 min 2 min 0 W/m 16,7 km/h (3 Bft)
26.01.2015 02:46 2,2 C 1,1 C 98 % 1024,9 hPa 0,0 l/m 0 min 2 min 0 W/m 14,6 km/h (3 Bft)
26.01.2015 02:48 2,2 C 1,1 C 98 % 1024,9 hPa 0,0 l/m 0 min 2 min 0 W/m 18,8 km/h (3 Bft)
26.01.2015 02:50 2,2 C 1,1 C 98 % 1025,0 hPa 0,2 l/m 0 min 2 min 0 W/m 12,6 km/h (3 Bft)
26.01.2015 02:52 2,2 C 1,1 C 98 % 1024,9 hPa 0,0 l/m 0 min 2 min 0 W/m 16,7 km/h (3 Bft)
26.01.2015 02:54 2,2 C 1,1 C 98 % 1024,9 hPa 0,0 l/m 0 min 2 min 0 W/m 12,6 km/h (3 Bft)
26.01.2015 02:56 2,2 C 1,1 C 98 % 1024,9 hPa 0,0 l/m 0 min 2 min 0 W/m 16,7 km/h (3 Bft)
26.01.2015 02:58 2,2 C 1,1 C 98 % 1024,8 hPa 0,0 l/m 0 min 2 min 0 W/m 23,0 km/h (4 Bft)
26.01.2015 03:00 2,2 C 1,1 C 98 % 1024,7 hPa 0,0 l/m 0 min 2 min 0 W/m 14,6 km/h (3 Bft)
26.01.2015 03:02 2,2 C 1,1 C 98 % 1024,8 hPa 0,0 l/m 0 min 2 min 0 W/m 8,4 km/h (2 Bft)
26.01.2015 03:04 2,2 C 1,1 C 98 % 1024,8 hPa 0,2 l/m 0 min 2 min 0 W/m 16,7 km/h (3 Bft)
26.01.2015 03:06 2,2 C 1,1 C 98 % 1024,8 hPa 0,0 l/m 0 min 2 min 0 W/m 14,6 km/h (3 Bft)
26.01.2015 03:08 2,2 C 1,1 C 98 % 1024,8 hPa 0,0 l/m 0 min 2 min 0 W/m 14,6 km/h (3 Bft)
26.01.2015 03:10 2,2 C 1,1 C 98 % 1024,8 hPa 0,0 l/m 0 min 2 min 0 W/m 27,2 km/h (4 Bft)
26.01.2015 03:12 2,2 C 1,1 C 98 % 1024,7 hPa 0,0 l/m 0 min 2 min 0 W/m 16,7 km/h (3 Bft)
26.01.2015 03:14 2,2 C 1,1 C 98 % 1024,6 hPa 0,0 l/m 0 min 2 min 0 W/m 14,6 km/h (3 Bft)
26.01.2015 03:16 2,2 C 1,1 C 98 % 1024,6 hPa 0,0 l/m 0 min 2 min 0 W/m 14,6 km/h (3 Bft)
26.01.2015 03:18 2,2 C 1,1 C 98 % 1024,6 hPa 0,0 l/m 0 min 2 min 0 W/m 14,6 km/h (3 Bft)
26.01.2015 03:20 2,2 C 1,1 C 98 % 1024,6 hPa 0,0 l/m 0 min 2 min 0 W/m 14,6 km/h (3 Bft)
26.01.2015 03:22 2,2 C 1,1 C 98 % 1024,6 hPa 0,0 l/m 0 min 2 min 0 W/m 12,6 km/h (3 Bft)
26.01.2015 03:24 2,2 C 1,1 C 98 % 1024,6 hPa 0,0 l/m 0 min 0 min 0 W/m 14,6 km/h (3 Bft)
26.01.2015 03:26 2,2 C 1,1 C 98 % 1024,6 hPa 0,0 l/m 0 min 0 min 0 W/m 14,6 km/h (3 Bft)
26.01.2015 03:28 2,2 C 1,1 C 98 % 1024,6 hPa 0,0 l/m 0 min 0 min 0 W/m 10,5 km/h (2 Bft)
26.01.2015 03:30 2,2 C 1,1 C 98 % 1024,6 hPa 0,0 l/m 0 min 0 min 0 W/m 16,7 km/h (3 Bft)
26.01.2015 03:32 2,2 C 1,1 C 98 % 1024,6 hPa 0,0 l/m 0 min 0 min 0 W/m 18,8 km/h (3 Bft)
26.01.2015 03:34 2,2 C 1,1 C 98 % 1024,5 hPa 0,0 l/m 0 min 0 min 0 W/m 14,6 km/h (3 Bft)
26.01.2015 03:36 2,2 C 1,1 C 98 % 1024,5 hPa 0,0 l/m 0 min 0 min 0 W/m 12,6 km/h (3 Bft)
26.01.2015 03:38 2,2 C 1,1 C 98 % 1024,3 hPa 0,0 l/m 0 min 0 min 0 W/m 16,7 km/h (3 Bft)
26.01.2015 03:40 2,3 C 1,1 C 98 % 1024,3 hPa 0,0 l/m 0 min 0 min 0 W/m 12,6 km/h (3 Bft)
26.01.2015 03:42 2,2 C 1,1 C 98 % 1024,2 hPa 0,0 l/m 0 min 0 min 0 W/m 14,6 km/h (3 Bft)
26.01.2015 03:44 2,2 C 1,1 C 98 % 1024,2 hPa 0,0 l/m 0 min 0 min 0 W/m 18,8 km/h (3 Bft)
26.01.2015 03:46 2,2 C 1,1 C 98 % 1024,2 hPa 0,0 l/m 0 min 0 min 0 W/m 18,8 km/h (3 Bft)
26.01.2015 03:48 2,3 C 1,1 C 98 % 1024,1 hPa 0,0 l/m 0 min 0 min 0 W/m 14,6 km/h (3 Bft)
26.01.2015 03:50 2,2 C 1,1 C 98 % 1024,1 hPa 0,0 l/m 0 min 0 min 0 W/m 18,8 km/h (3 Bft)
26.01.2015 03:52 2,3 C 1,1 C 98 % 1024,1 hPa 0,0 l/m 0 min 0 min 0 W/m 16,7 km/h (3 Bft)
26.01.2015 03:54 2,3 C 1,1 C 98 % 1024,0 hPa 0,0 l/m 0 min 0 min 0 W/m 14,6 km/h (3 Bft)
26.01.2015 03:56 2,3 C 1,1 C 98 % 1024,0 hPa 0,0 l/m 0 min 0 min 0 W/m 18,8 km/h (3 Bft)
26.01.2015 03:58 2,3 C 1,1 C 98 % 1024,0 hPa 0,0 l/m 0 min 0 min 0 W/m 18,8 km/h (3 Bft)
26.01.2015 04:00 2,3 C 1,1 C 98 % 1024,0 hPa 0,0 l/m 0 min 0 min 0 W/m 10,5 km/h (2 Bft)
26.01.2015 04:02 2,3 C 1,1 C 98 % 1023,9 hPa 0,0 l/m 0 min 0 min 0 W/m 18,8 km/h (3 Bft)
26.01.2015 04:04 2,3 C 1,1 C 98 % 1023,9 hPa 0,0 l/m 0 min 0 min 0 W/m 10,5 km/h (2 Bft)
26.01.2015 04:06 2,3 C 1,1 C 98 % 1023,9 hPa 0,0 l/m 0 min 0 min 0 W/m 14,6 km/h (3 Bft)
26.01.2015 04:08 2,3 C 1,1 C 98 % 1023,9 hPa 0,0 l/m 0 min 0 min 0 W/m 14,6 km/h (3 Bft)
26.01.2015 04:10 2,3 C 1,1 C 98 % 1023,8 hPa 0,0 l/m 0 min 0 min 0 W/m 12,6 km/h (3 Bft)
26.01.2015 04:12 2,3 C 1,1 C 98 % 1023,8 hPa 0,0 l/m 0 min 0 min 0 W/m 16,7 km/h (3 Bft)
26.01.2015 04:14 2,3 C 1,1 C 98 % 1023,7 hPa 0,0 l/m 0 min 0 min 0 W/m 14,6 km/h (3 Bft)
26.01.2015 04:16 2,3 C 1,1 C 98 % 1023,8 hPa 0,2 l/m 0 min 0 min 0 W/m 16,7 km/h (3 Bft)
26.01.2015 04:18 2,3 C 1,1 C 98 % 1023,6 hPa 0,0 l/m 0 min 0 min 0 W/m 18,8 km/h (3 Bft)
26.01.2015 04:20 2,3 C 1,1 C 98 % 1023,5 hPa 0,0 l/m 0 min 0 min 0 W/m 14,6 km/h (3 Bft)
26.01.2015 04:22 2,3 C 1,1 C 98 % 1023,5 hPa 0,0 l/m 0 min 0 min 0 W/m 18,8 km/h (3 Bft)
26.01.2015 04:24 2,3 C 1,1 C 98 % 1023,5 hPa 0,0 l/m 0 min 0 min 0 W/m 12,6 km/h (3 Bft)
26.01.2015 04:26 2,3 C 1,1 C 98 % 1023,5 hPa 0,0 l/m 0 min 0 min 0 W/m 14,6 km/h (3 Bft)
26.01.2015 04:28 2,3 C 1,1 C 98 % 1023,4 hPa 0,0 l/m 0 min 0 min 0 W/m 16,7 km/h (3 Bft)
26.01.2015 04:30 2,4 C 1,1 C 98 % 1023,5 hPa 0,0 l/m 0 min 0 min 0 W/m 20,9 km/h (4 Bft)
26.01.2015 04:32 2,3 C 1,1 C 98 % 1023,4 hPa 0,0 l/m 0 min 0 min 0 W/m 14,6 km/h (3 Bft)
26.01.2015 04:34 2,4 C 1,1 C 98 % 1023,4 hPa 0,0 l/m 0 min 0 min 0 W/m 16,7 km/h (3 Bft)
26.01.2015 04:36 2,4 C 1,1 C 98 % 1023,4 hPa 0,0 l/m 0 min 0 min 0 W/m 14,6 km/h (3 Bft)
26.01.2015 04:38 2,4 C 1,1 C 98 % 1023,3 hPa 0,0 l/m 0 min 0 min 0 W/m 20,9 km/h (4 Bft)
26.01.2015 04:40 2,4 C 1,1 C 98 % 1023,3 hPa 0,0 l/m 0 min 0 min 0 W/m 14,6 km/h (3 Bft)
26.01.2015 04:42 2,4 C 1,1 C 98 % 1023,3 hPa 0,0 l/m 0 min 0 min 0 W/m 18,8 km/h (3 Bft)
26.01.2015 04:44 2,4 C 1,1 C 98 % 1023,3 hPa 0,0 l/m 0 min 0 min 0 W/m 14,6 km/h (3 Bft)
26.01.2015 04:46 2,4 C 1,1 C 98 % 1023,3 hPa 0,0 l/m 0 min 0 min 0 W/m 16,7 km/h (3 Bft)
26.01.2015 04:48 2,4 C 1,1 C 98 % 1023,3 hPa 0,0 l/m 0 min 0 min 0 W/m 18,8 km/h (3 Bft)
26.01.2015 04:50 2,4 C 1,1 C 98 % 1023,3 hPa 0,0 l/m 0 min 0 min 0 W/m 16,7 km/h (3 Bft)
26.01.2015 04:52 2,4 C 1,1 C 98 % 1023,3 hPa 0,0 l/m 0 min 0 min 0 W/m 12,6 km/h (3 Bft)
26.01.2015 04:54 2,4 C 1,1 C 98 % 1023,2 hPa 0,0 l/m 0 min 0 min 0 W/m 14,6 km/h (3 Bft)
26.01.2015 04:56 2,4 C 1,1 C 98 % 1023,2 hPa 0,0 l/m 0 min 0 min 0 W/m 12,6 km/h (3 Bft)
26.01.2015 04:58 2,4 C 1,1 C 98 % 1023,1 hPa 0,0 l/m 0 min 0 min 0 W/m 12,6 km/h (3 Bft)
26.01.2015 05:00 2,4 C 1,1 C 98 % 1023,1 hPa 0,0 l/m 0 min 0 min 0 W/m 12,6 km/h (3 Bft)
26.01.2015 05:02 2,4 C 1,1 C 98 % 1023,1 hPa 0,0 l/m 0 min 0 min 0 W/m 16,7 km/h (3 Bft)
26.01.2015 05:04 2,4 C 1,1 C 98 % 1023,1 hPa 0,0 l/m 0 min 0 min 0 W/m 14,6 km/h (3 Bft)
26.01.2015 05:06 2,4 C 1,1 C 98 % 1022,9 hPa 0,0 l/m 0 min 0 min 0 W/m 14,6 km/h (3 Bft)
26.01.2015 05:08 2,5 C 1,7 C 98 % 1023,0 hPa 0,0 l/m 0 min 0 min 0 W/m 20,9 km/h (4 Bft)
26.01.2015 05:10 2,5 C 1,7 C 98 % 1022,9 hPa 0,0 l/m 0 min 0 min 0 W/m 14,6 km/h (3 Bft)
26.01.2015 05:12 2,5 C 1,7 C 98 % 1022,9 hPa 0,0 l/m 0 min 0 min 0 W/m 12,6 km/h (3 Bft)
26.01.2015 05:14 2,5 C 1,7 C 98 % 1022,9 hPa 0,0 l/m 0 min 0 min 0 W/m 18,8 km/h (3 Bft)
26.01.2015 05:16 2,5 C 1,7 C 98 % 1022,8 hPa 0,0 l/m 0 min 0 min 0 W/m 18,8 km/h (3 Bft)
26.01.2015 05:18 2,5 C 1,7 C 98 % 1022,8 hPa 0,0 l/m 0 min 0 min 0 W/m 14,6 km/h (3 Bft)
26.01.2015 05:20 2,5 C 1,7 C 98 % 1022,8 hPa 0,0 l/m 0 min 0 min 0 W/m 18,8 km/h (3 Bft)
26.01.2015 05:22 2,5 C 1,7 C 98 % 1022,7 hPa 0,0 l/m 0 min 0 min 0 W/m 14,6 km/h (3 Bft)
26.01.2015 05:24 2,6 C 1,7 C 98 % 1022,8 hPa 0,0 l/m 0 min 0 min 0 W/m 8,4 km/h (2 Bft)
26.01.2015 05:26 2,6 C 1,7 C 98 % 1022,7 hPa 0,0 l/m 0 min 0 min 0 W/m 14,6 km/h (3 Bft)
26.01.2015 05:28 2,6 C 1,7 C 98 % 1022,7 hPa 0,2 l/m 0 min 0 min 0 W/m 14,6 km/h (3 Bft)
26.01.2015 05:30 2,6 C 1,7 C 98 % 1022,7 hPa 0,0 l/m 0 min 0 min 0 W/m 14,6 km/h (3 Bft)
26.01.2015 05:32 2,6 C 1,7 C 98 % 1022,7 hPa 0,0 l/m 0 min 0 min 0 W/m 12,6 km/h (3 Bft)
26.01.2015 05:34 2,6 C 1,7 C 98 % 1022,7 hPa 0,0 l/m 0 min 0 min 0 W/m 20,9 km/h (4 Bft)
26.01.2015 05:36 2,6 C 1,7 C 98 % 1022,7 hPa 0,0 l/m 0 min 0 min 0 W/m 12,6 km/h (3 Bft)
26.01.2015 05:38 2,6 C 1,7 C 98 % 1022,7 hPa 0,0 l/m 0 min 0 min 0 W/m 12,6 km/h (3 Bft)
26.01.2015 05:40 2,6 C 1,7 C 98 % 1022,6 hPa 0,0 l/m 0 min 0 min 0 W/m 12,6 km/h (3 Bft)
26.01.2015 05:42 2,6 C 1,7 C 98 % 1022,6 hPa 0,0 l/m 0 min 0 min 0 W/m 16,7 km/h (3 Bft)
26.01.2015 05:44 2,6 C 1,7 C 98 % 1022,6 hPa 0,0 l/m 0 min 0 min 0 W/m 16,7 km/h (3 Bft)
26.01.2015 05:46 2,6 C 1,7 C 98 % 1022,6 hPa 0,0 l/m 0 min 0 min 0 W/m 16,7 km/h (3 Bft)
26.01.2015 05:48 2,6 C 1,7 C 98 % 1022,6 hPa 0,0 l/m 0 min 0 min 0 W/m 16,7 km/h (3 Bft)
26.01.2015 05:50 2,6 C 1,7 C 98 % 1022,6 hPa 0,0 l/m 0 min 0 min 0 W/m 12,6 km/h (3 Bft)
26.01.2015 05:52 2,6 C 1,7 C 98 % 1022,5 hPa 0,0 l/m 0 min 0 min 0 W/m 14,6 km/h (3 Bft)
26.01.2015 05:54 2,6 C 1,7 C 98 % 1022,5 hPa 0,0 l/m 0 min 0 min 0 W/m 12,6 km/h (3 Bft)
26.01.2015 05:56 2,6 C 1,7 C 98 % 1022,5 hPa 0,0 l/m 0 min 0 min 0 W/m 14,6 km/h (3 Bft)
26.01.2015 05:58 2,6 C 1,7 C 98 % 1022,4 hPa 0,0 l/m 0 min 0 min 0 W/m 14,6 km/h (3 Bft)
26.01.2015 06:00 2,6 C 1,7 C 98 % 1022,4 hPa 0,0 l/m 0 min 0 min 0 W/m 16,7 km/h (3 Bft)
26.01.2015 06:02 2,6 C 1,7 C 98 % 1022,3 hPa 0,0 l/m 0 min 0 min 0 W/m 16,7 km/h (3 Bft)
26.01.2015 06:06 2,6 C 1,7 C 98 % 1022,4 hPa 0,0 l/m 0 min 0 min 0 W/m 12,6 km/h (3 Bft)
26.01.2015 06:08 2,6 C 1,7 C 98 % 1022,3 hPa 0,0 l/m 0 min 0 min 0 W/m 16,7 km/h (3 Bft)
26.01.2015 06:10 2,6 C 1,7 C 98 % 1022,3 hPa 0,0 l/m 0 min 0 min 0 W/m 16,7 km/h (3 Bft)
26.01.2015 06:12 2,6 C 1,7 C 98 % 1022,3 hPa 0,0 l/m 0 min 0 min 0 W/m 12,6 km/h (3 Bft)
26.01.2015 06:14 2,6 C 1,7 C 98 % 1022,2 hPa 0,0 l/m 0 min 0 min 0 W/m 16,7 km/h (3 Bft)
26.01.2015 06:16 2,6 C 1,7 C 98 % 1022,2 hPa 0,0 l/m 0 min 0 min 0 W/m 16,7 km/h (3 Bft)
26.01.2015 06:18 2,6 C 1,7 C 98 % 1022,1 hPa 0,0 l/m 0 min 0 min 0 W/m 12,6 km/h (3 Bft)
26.01.2015 06:20 2,6 C 1,7 C 98 % 1022,2 hPa 0,0 l/m 0 min 0 min 0 W/m 18,8 km/h (3 Bft)
26.01.2015 06:22 2,6 C 1,7 C 98 % 1022,2 hPa 0,0 l/m 0 min 0 min 0 W/m 14,6 km/h (3 Bft)
26.01.2015 06:24 2,6 C 1,7 C 98 % 1022,1 hPa 0,0 l/m 0 min 0 min 0 W/m 16,7 km/h (3 Bft)
26.01.2015 06:26 2,6 C 1,7 C 98 % 1022,2 hPa 0,0 l/m 0 min 0 min 0 W/m 16,7 km/h (3 Bft)
26.01.2015 06:28 2,6 C 1,7 C 98 % 1022,1 hPa 0,0 l/m 0 min 0 min 0 W/m 18,8 km/h (3 Bft)
26.01.2015 06:30 2,6 C 1,7 C 98 % 1022,1 hPa 0,0 l/m 0 min 0 min 0 W/m 10,5 km/h (2 Bft)
26.01.2015 06:32 2,6 C 1,7 C 98 % 1022,1 hPa 0,0 l/m 0 min 0 min 0 W/m 16,7 km/h (3 Bft)
26.01.2015 06:34 2,6 C 1,7 C 98 % 1022,1 hPa 0,0 l/m 0 min 0 min 0 W/m 10,5 km/h (2 Bft)
26.01.2015 06:36 2,6 C 1,7 C 98 % 1022,1 hPa 0,0 l/m 0 min 0 min 0 W/m 10,5 km/h (2 Bft)
26.01.2015 06:38 2,6 C 1,7 C 98 % 1022,1 hPa 0,0 l/m 0 min 0 min 0 W/m 8,4 km/h (2 Bft)
26.01.2015 06:40 2,6 C 1,7 C 98 % 1022,0 hPa 0,0 l/m 0 min 0 min 0 W/m 14,6 km/h (3 Bft)
26.01.2015 06:42 2,6 C 1,7 C 98 % 1022,0 hPa 0,0 l/m 0 min 0 min 0 W/m 12,6 km/h (3 Bft)
26.01.2015 06:44 2,6 C 1,7 C 98 % 1021,9 hPa 0,0 l/m 0 min 0 min 0 W/m 12,6 km/h (3 Bft)
26.01.2015 06:46 2,6 C 1,7 C 98 % 1022,0 hPa 0,0 l/m 0 min 0 min 0 W/m 10,5 km/h (2 Bft)
26.01.2015 06:48 2,7 C 1,7 C 98 % 1021,9 hPa 0,0 l/m 0 min 0 min 0 W/m 10,5 km/h (2 Bft)
26.01.2015 06:50 2,7 C 1,7 C 98 % 1021,9 hPa 0,0 l/m 0 min 0 min 0 W/m 14,6 km/h (3 Bft)
26.01.2015 06:52 2,7 C 1,7 C 98 % 1021,9 hPa 0,0 l/m 0 min 0 min 0 W/m 14,6 km/h (3 Bft)
26.01.2015 06:54 2,7 C 1,7 C 98 % 1021,9 hPa 0,0 l/m 0 min 0 min 0 W/m 14,6 km/h (3 Bft)
26.01.2015 06:56 2,7 C 1,7 C 98 % 1021,9 hPa 0,0 l/m 0 min 0 min 0 W/m 10,5 km/h (2 Bft)
26.01.2015 06:58 2,7 C 1,7 C 98 % 1021,9 hPa 0,0 l/m 0 min 0 min 0 W/m 16,7 km/h (3 Bft)
26.01.2015 07:00 2,7 C 1,7 C 98 % 1021,8 hPa 0,0 l/m 0 min 0 min 0 W/m 10,5 km/h (2 Bft)
26.01.2015 07:02 2,7 C 1,7 C 98 % 1021,8 hPa 0,0 l/m 0 min 0 min 0 W/m 16,7 km/h (3 Bft)
26.01.2015 07:04 2,7 C 1,7 C 98 % 1021,8 hPa 0,0 l/m 0 min 0 min 0 W/m 10,5 km/h (2 Bft)
26.01.2015 07:06 2,7 C 1,7 C 98 % 1021,8 hPa 0,0 l/m 0 min 0 min 0 W/m 16,7 km/h (3 Bft)
26.01.2015 07:08 2,7 C 1,7 C 98 % 1021,8 hPa 0,0 l/m 0 min 0 min 0 W/m 16,7 km/h (3 Bft)
26.01.2015 07:10 2,7 C 1,7 C 98 % 1021,8 hPa 0,0 l/m 0 min 0 min 0 W/m 14,6 km/h (3 Bft)
26.01.2015 07:12 2,7 C 1,7 C 98 % 1021,8 hPa 0,0 l/m 0 min 0 min 0 W/m 10,5 km/h (2 Bft)
26.01.2015 07:14 2,7 C 1,7 C 98 % 1021,7 hPa 0,0 l/m 0 min 0 min 0 W/m 12,6 km/h (3 Bft)
26.01.2015 07:16 2,7 C 1,7 C 98 % 1021,7 hPa 0,0 l/m 0 min 0 min 0 W/m 12,6 km/h (3 Bft)
26.01.2015 07:18 2,7 C 1,7 C 98 % 1021,7 hPa 0,0 l/m 0 min 0 min 0 W/m 12,6 km/h (3 Bft)
26.01.2015 07:20 2,7 C 1,7 C 98 % 1021,7 hPa 0,0 l/m 0 min 0 min 0 W/m 14,6 km/h (3 Bft)
26.01.2015 07:22 2,8 C 1,7 C 98 % 1021,6 hPa 0,0 l/m 0 min 0 min 0 W/m 14,6 km/h (3 Bft)
26.01.2015 07:24 2,8 C 1,7 C 98 % 1021,6 hPa 0,0 l/m 0 min 0 min 0 W/m 10,5 km/h (2 Bft)
26.01.2015 07:26 2,8 C 1,7 C 98 % 1021,6 hPa 0,0 l/m 0 min 0 min 0 W/m 8,4 km/h (2 Bft)
26.01.2015 07:28 2,8 C 1,7 C 98 % 1021,6 hPa 0,0 l/m 0 min 0 min 0 W/m 10,5 km/h (2 Bft)
26.01.2015 07:30 2,8 C 1,7 C 98 % 1021,7 hPa 0,0 l/m 0 min 2 min 0 W/m 8,4 km/h (2 Bft)
26.01.2015 07:32 2,8 C 1,7 C 98 % 1021,7 hPa 0,2 l/m 0 min 2 min 0 W/m 12,6 km/h (3 Bft)
26.01.2015 07:34 2,8 C 1,7 C 98 % 1021,6 hPa 0,0 l/m 0 min 2 min 0 W/m 12,6 km/h (3 Bft)
26.01.2015 07:36 2,8 C 1,7 C 98 % 1021,6 hPa 0,0 l/m 0 min 2 min 0 W/m 12,6 km/h (3 Bft)
26.01.2015 07:38 2,8 C 1,7 C 98 % 1021,6 hPa 0,0 l/m 0 min 2 min 0 W/m 14,6 km/h (3 Bft)
26.01.2015 07:40 2,9 C 1,7 C 98 % 1021,6 hPa 0,0 l/m 0 min 2 min 0 W/m 12,6 km/h (3 Bft)
26.01.2015 07:42 2,9 C 1,7 C 98 % 1021,6 hPa 0,0 l/m 0 min 2 min 0 W/m 14,6 km/h (3 Bft)
26.01.2015 07:44 2,9 C 1,7 C 98 % 1021,5 hPa 0,0 l/m 0 min 2 min 0 W/m 14,6 km/h (3 Bft)
26.01.2015 07:46 2,9 C 1,7 C 98 % 1021,5 hPa 0,0 l/m 0 min 2 min 0 W/m 10,5 km/h (2 Bft)
26.01.2015 07:48 2,9 C 1,7 C 98 % 1021,5 hPa 0,0 l/m 0 min 2 min 0 W/m 12,6 km/h (3 Bft)
26.01.2015 07:50 2,9 C 1,7 C 98 % 1021,4 hPa 0,0 l/m 0 min 2 min 0 W/m 8,4 km/h (2 Bft)
26.01.2015 07:52 2,9 C 1,7 C 98 % 1021,5 hPa 0,2 l/m 0 min 2 min 0 W/m 10,5 km/h (2 Bft)
26.01.2015 07:54 2,9 C 1,7 C 98 % 1021,4 hPa 0,0 l/m 0 min 2 min 0 W/m 16,7 km/h (3 Bft)
26.01.2015 07:56 2,9 C 1,7 C 98 % 1021,4 hPa 0,0 l/m 0 min 2 min 0 W/m 18,8 km/h (3 Bft)
26.01.2015 07:58 2,9 C 1,7 C 98 % 1021,5 hPa 0,0 l/m 0 min 2 min 0 W/m 14,6 km/h (3 Bft)
26.01.2015 08:00 3,0 C 1,7 C 98 % 1021,5 hPa 0,0 l/m 0 min 2 min 0 W/m 18,8 km/h (3 Bft)
26.01.2015 08:02 3,0 C 1,7 C 98 % 1021,5 hPa 0,0 l/m 0 min 2 min 0 W/m 10,5 km/h (2 Bft)
26.01.2015 08:04 3,0 C 1,7 C 98 % 1021,4 hPa 0,0 l/m 0 min 2 min 0 W/m 14,6 km/h (3 Bft)
26.01.2015 08:06 3,0 C 1,7 C 98 % 1021,5 hPa 0,0 l/m 0 min 2 min 0 W/m 12,6 km/h (3 Bft)
26.01.2015 08:08 3,0 C 1,7 C 98 % 1021,5 hPa 0,2 l/m 0 min 2 min 0 W/m 8,4 km/h (2 Bft)
26.01.2015 08:10 3,0 C 1,7 C 98 % 1021,4 hPa 0,0 l/m 0 min 2 min 0 W/m 12,6 km/h (3 Bft)
26.01.2015 08:12 3,0 C 1,7 C 98 % 1021,4 hPa 0,0 l/m 0 min 2 min 0 W/m 8,4 km/h (2 Bft)
26.01.2015 08:14 3,0 C 1,7 C 98 % 1021,4 hPa 0,0 l/m 0 min 2 min 0 W/m 10,5 km/h (2 Bft)
26.01.2015 08:16 3,0 C 1,7 C 98 % 1021,4 hPa 0,0 l/m 0 min 2 min 0 W/m 12,6 km/h (3 Bft)
26.01.2015 08:18 3,0 C 1,7 C 98 % 1021,4 hPa 0,0 l/m 0 min 2 min 0 W/m 10,5 km/h (2 Bft)
26.01.2015 08:20 3,0 C 1,7 C 98 % 1021,4 hPa 0,0 l/m 0 min 2 min 0 W/m 12,6 km/h (3 Bft)
26.01.2015 08:22 3,0 C 1,7 C 98 % 1021,3 hPa 0,2 l/m 0 min 2 min 0 W/m 10,5 km/h (2 Bft)
26.01.2015 08:24 3,1 C 1,7 C 98 % 1021,3 hPa 0,0 l/m 0 min 2 min 0 W/m 8,4 km/h (2 Bft)
26.01.2015 08:26 3,0 C 1,7 C 98 % 1021,3 hPa 0,0 l/m 0 min 2 min 0 W/m 12,6 km/h (3 Bft)
26.01.2015 08:28 3,0 C 1,7 C 98 % 1021,3 hPa 0,0 l/m 0 min 2 min 0 W/m 12,6 km/h (3 Bft)
26.01.2015 08:30 3,0 C 1,7 C 98 % 1021,2 hPa 0,0 l/m 0 min 2 min 0 W/m 12,6 km/h (3 Bft)
26.01.2015 08:32 3,1 C 2,2 C 98 % 1021,2 hPa 0,0 l/m 0 min 2 min 0 W/m 10,5 km/h (2 Bft)
26.01.2015 08:34 3,1 C 2,2 C 98 % 1021,2 hPa 0,0 l/m 0 min 2 min 0 W/m 16,7 km/h (3 Bft)
26.01.2015 08:36 3,1 C 2,2 C 98 % 1021,2 hPa 0,0 l/m 0 min 2 min 0 W/m 12,6 km/h (3 Bft)
26.01.2015 08:38 3,1 C 2,2 C 98 % 1021,2 hPa 0,0 l/m 0 min 2 min 0 W/m 12,6 km/h (3 Bft)
26.01.2015 08:40 3,1 C 2,2 C 98 % 1021,3 hPa 0,0 l/m 0 min 2 min 0 W/m 10,5 km/h (2 Bft)
26.01.2015 08:42 3,1 C 2,2 C 98 % 1021,2 hPa 0,0 l/m 0 min 2 min 5 W/m 8,4 km/h (2 Bft)
26.01.2015 08:44 3,1 C 2,2 C 98 % 1021,2 hPa 0,0 l/m 0 min 2 min 5 W/m 10,5 km/h (2 Bft)
26.01.2015 08:46 3,1 C 2,2 C 98 % 1021,1 hPa 0,0 l/m 0 min 2 min 5 W/m 12,6 km/h (3 Bft)
26.01.2015 08:48 3,1 C 2,2 C 98 % 1021,1 hPa 0,0 l/m 0 min 2 min 5 W/m 10,5 km/h (2 Bft)
26.01.2015 08:50 3,1 C 2,2 C 98 % 1021,1 hPa 0,2 l/m 0 min 2 min 7 W/m 12,6 km/h (3 Bft)
26.01.2015 08:52 3,1 C 2,2 C 98 % 1021,1 hPa 0,0 l/m 0 min 2 min 7 W/m 6,3 km/h (2 Bft)
26.01.2015 08:54 3,1 C 2,2 C 98 % 1021,1 hPa 0,0 l/m 0 min 2 min 7 W/m 12,6 km/h (3 Bft)
26.01.2015 08:56 3,2 C 2,2 C 98 % 1021,0 hPa 0,0 l/m 0 min 2 min 7 W/m 14,6 km/h (3 Bft)
26.01.2015 08:58 3,2 C 2,2 C 98 % 1021,1 hPa 0,0 l/m 0 min 2 min 7 W/m 14,6 km/h (3 Bft)
26.01.2015 09:00 3,2 C 2,2 C 98 % 1021,0 hPa 0,0 l/m 0 min 2 min 8 W/m 14,6 km/h (3 Bft)
26.01.2015 09:02 3,2 C 2,2 C 98 % 1021,0 hPa 0,0 l/m 0 min 2 min 10 W/m 14,6 km/h (3 Bft)
26.01.2015 09:04 3,2 C 2,2 C 98 % 1020,9 hPa 0,0 l/m 0 min 2 min 11 W/m 4,2 km/h (1 Bft)
26.01.2015 09:06 3,2 C 2,2 C 98 % 1020,9 hPa 0,0 l/m 0 min 2 min 11 W/m 10,5 km/h (2 Bft)
26.01.2015 09:08 3,2 C 2,2 C 98 % 1020,9 hPa 0,0 l/m 0 min 2 min 11 W/m 12,6 km/h (3 Bft)
26.01.2015 09:10 3,2 C 2,2 C 99 % 1020,8 hPa 0,0 l/m 0 min 2 min 11 W/m 16,7 km/h (3 Bft)
26.01.2015 09:12 3,2 C 2,2 C 99 % 1020,8 hPa 0,0 l/m 0 min 2 min 11 W/m 8,4 km/h (2 Bft)
26.01.2015 09:14 3,2 C 2,2 C 99 % 1020,8 hPa 0,0 l/m 0 min 2 min 11 W/m 8,4 km/h (2 Bft)
26.01.2015 09:16 3,2 C 2,2 C 99 % 1020,9 hPa 0,0 l/m 0 min 2 min 11 W/m 14,6 km/h (3 Bft)
26.01.2015 09:18 3,2 C 2,2 C 99 % 1020,8 hPa 0,0 l/m 0 min 2 min 12 W/m 12,6 km/h (3 Bft)
26.01.2015 09:20 3,3 C 2,2 C 99 % 1020,8 hPa 0,0 l/m 0 min 2 min 12 W/m 16,7 km/h (3 Bft)
26.01.2015 09:22 3,3 C 2,2 C 99 % 1020,8 hPa 0,0 l/m 0 min 2 min 12 W/m 12,6 km/h (3 Bft)
26.01.2015 09:24 3,3 C 2,2 C 99 % 1020,7 hPa 0,2 l/m 0 min 2 min 12 W/m 16,7 km/h (3 Bft)
26.01.2015 09:26 3,3 C 2,2 C 99 % 1020,7 hPa 0,0 l/m 0 min 2 min 14 W/m 14,6 km/h (3 Bft)
26.01.2015 09:28 3,3 C 2,2 C 99 % 1020,7 hPa 0,0 l/m 0 min 2 min 15 W/m 14,6 km/h (3 Bft)
26.01.2015 09:30 3,3 C 2,2 C 99 % 1020,7 hPa 0,0 l/m 0 min 2 min 17 W/m 16,7 km/h (3 Bft)
26.01.2015 09:32 3,3 C 2,2 C 99 % 1020,7 hPa 0,0 l/m 0 min 2 min 18 W/m 10,5 km/h (2 Bft)
26.01.2015 09:34 3,3 C 2,2 C 99 % 1020,7 hPa 0,0 l/m 0 min 2 min 19 W/m 12,6 km/h (3 Bft)
26.01.2015 09:36 3,3 C 2,2 C 99 % 1020,7 hPa 0,0 l/m 0 min 2 min 19 W/m 14,6 km/h (3 Bft)
26.01.2015 09:38 3,3 C 2,2 C 99 % 1020,7 hPa 0,0 l/m 0 min 2 min 19 W/m 14,6 km/h (3 Bft)
26.01.2015 09:40 3,4 C 2,2 C 99 % 1020,7 hPa 0,0 l/m 0 min 2 min 19 W/m 14,6 km/h (3 Bft)
26.01.2015 09:42 3,4 C 2,2 C 99 % 1020,7 hPa 0,0 l/m 0 min 2 min 19 W/m 14,6 km/h (3 Bft)
26.01.2015 09:44 3,4 C 2,2 C 98 % 1020,7 hPa 0,0 l/m 0 min 2 min 19 W/m 14,6 km/h (3 Bft)
26.01.2015 09:46 3,4 C 2,2 C 98 % 1020,7 hPa 0,0 l/m 0 min 2 min 19 W/m 14,6 km/h (3 Bft)
26.01.2015 09:48 3,4 C 2,2 C 98 % 1020,7 hPa 0,0 l/m 0 min 2 min 19 W/m 14,6 km/h (3 Bft)
26.01.2015 09:50 3,4 C 2,2 C 98 % 1020,7 hPa 0,0 l/m 0 min 2 min 19 W/m 12,6 km/h (3 Bft)
26.01.2015 09:52 3,4 C 2,2 C 98 % 1020,7 hPa 0,0 l/m 0 min 2 min 19 W/m 8,4 km/h (2 Bft)
26.01.2015 09:54 3,4 C 2,2 C 98 % 1020,7 hPa 0,0 l/m 0 min 2 min 19 W/m 10,5 km/h (2 Bft)
26.01.2015 09:56 3,4 C 2,2 C 99 % 1020,7 hPa 0,2 l/m 0 min 2 min 18 W/m 16,7 km/h (3 Bft)
26.01.2015 09:58 3,4 C 2,2 C 98 % 1020,7 hPa 0,0 l/m 0 min 2 min 19 W/m 14,6 km/h (3 Bft)
26.01.2015 10:00 3,4 C 2,2 C 98 % 1020,7 hPa 0,0 l/m 0 min 2 min 18 W/m 10,5 km/h (2 Bft)
26.01.2015 10:02 3,4 C 2,2 C 98 % 1020,6 hPa 0,2 l/m 0 min 2 min 20 W/m 12,6 km/h (3 Bft)
26.01.2015 10:04 3,4 C 2,2 C 98 % 1020,6 hPa 0,0 l/m 0 min 2 min 23 W/m 14,6 km/h (3 Bft)
26.01.2015 10:06 3,4 C 2,2 C 98 % 1020,4 hPa 0,0 l/m 0 min 2 min 22 W/m 18,8 km/h (3 Bft)
26.01.2015 10:08 3,4 C 2,2 C 98 % 1020,3 hPa 0,2 l/m 0 min 2 min 23 W/m 10,5 km/h (2 Bft)
26.01.2015 10:10 3,4 C 2,2 C 98 % 1020,3 hPa 0,0 l/m 0 min 2 min 25 W/m 16,7 km/h (3 Bft)
26.01.2015 10:12 3,5 C 2,2 C 98 % 1020,3 hPa 0,0 l/m 0 min 2 min 24 W/m 14,6 km/h (3 Bft)
26.01.2015 10:14 3,5 C 2,2 C 98 % 1020,3 hPa 0,2 l/m 0 min 2 min 24 W/m 14,6 km/h (3 Bft)
26.01.2015 10:16 3,5 C 2,8 C 98 % 1020,3 hPa 0,0 l/m 0 min 2 min 21 W/m 12,6 km/h (3 Bft)
26.01.2015 10:18 3,5 C 2,8 C 98 % 1020,3 hPa 0,0 l/m 0 min 2 min 24 W/m 12,6 km/h (3 Bft)
26.01.2015 10:20 3,5 C 2,8 C 98 % 1020,2 hPa 0,0 l/m 0 min 2 min 25 W/m 14,6 km/h (3 Bft)
26.01.2015 10:22 3,5 C 2,8 C 98 % 1020,2 hPa 0,0 l/m 0 min 2 min 26 W/m 12,6 km/h (3 Bft)
26.01.2015 10:24 3,6 C 2,8 C 98 % 1020,2 hPa 0,2 l/m 0 min 2 min 28 W/m 18,8 km/h (3 Bft)
26.01.2015 10:26 3,6 C 2,8 C 98 % 1020,2 hPa 0,0 l/m 0 min 2 min 31 W/m 16,7 km/h (3 Bft)
26.01.2015 10:28 3,6 C 2,8 C 99 % 1020,2 hPa 0,0 l/m 0 min 2 min 31 W/m 14,6 km/h (3 Bft)
26.01.2015 10:30 3,6 C 2,8 C 98 % 1020,2 hPa 0,0 l/m 0 min 2 min 26 W/m 12,6 km/h (3 Bft)
26.01.2015 10:32 3,6 C 2,8 C 99 % 1020,2 hPa 0,0 l/m 0 min 2 min 27 W/m 14,6 km/h (3 Bft)
26.01.2015 10:34 3,6 C 2,8 C 99 % 1020,2 hPa 0,2 l/m 0 min 2 min 28 W/m 14,6 km/h (3 Bft)
26.01.2015 10:36 3,7 C 2,8 C 99 % 1020,2 hPa 0,0 l/m 0 min 2 min 28 W/m 16,7 km/h (3 Bft)
26.01.2015 10:38 3,7 C 2,8 C 99 % 1020,1 hPa 0,0 l/m 0 min 2 min 30 W/m 16,7 km/h (3 Bft)
26.01.2015 10:40 3,7 C 2,8 C 99 % 1020,2 hPa 0,2 l/m 0 min 2 min 30 W/m 10,5 km/h (2 Bft)
26.01.2015 10:42 3,7 C 2,8 C 99 % 1020,2 hPa 0,0 l/m 0 min 2 min 29 W/m 14,6 km/h (3 Bft)
26.01.2015 10:44 3,7 C 2,8 C 99 % 1020,2 hPa 0,0 l/m 0 min 2 min 29 W/m 14,6 km/h (3 Bft)
26.01.2015 10:46 3,7 C 2,8 C 99 % 1020,2 hPa 0,0 l/m 0 min 2 min 28 W/m 12,6 km/h (3 Bft)
26.01.2015 10:48 3,7 C 2,8 C 99 % 1020,1 hPa 0,0 l/m 0 min 2 min 30 W/m 14,6 km/h (3 Bft)
26.01.2015 10:50 3,7 C 2,8 C 99 % 1020,1 hPa 0,2 l/m 0 min 2 min 30 W/m 14,6 km/h (3 Bft)
26.01.2015 10:52 3,7 C 2,8 C 99 % 1020,1 hPa 0,0 l/m 0 min 2 min 31 W/m 12,6 km/h (3 Bft)
26.01.2015 10:54 3,7 C 2,8 C 99 % 1020,1 hPa 0,0 l/m 0 min 2 min 31 W/m 10,5 km/h (2 Bft)
26.01.2015 10:56 3,8 C 2,8 C 99 % 1020,1 hPa 0,0 l/m 0 min 2 min 30 W/m 10,5 km/h (2 Bft)
26.01.2015 10:58 3,8 C 2,8 C 99 % 1020,1 hPa 0,0 l/m 0 min 2 min 29 W/m 16,7 km/h (3 Bft)
26.01.2015 11:00 3,8 C 2,8 C 99 % 1020,0 hPa 0,0 l/m 0 min 2 min 28 W/m 18,8 km/h (3 Bft)
26.01.2015 11:02 3,8 C 2,8 C 99 % 1020,0 hPa 0,0 l/m 0 min 2 min 29 W/m 16,7 km/h (3 Bft)
26.01.2015 11:04 3,8 C 2,8 C 99 % 1020,0 hPa 0,2 l/m 0 min 2 min 30 W/m 12,6 km/h (3 Bft)
26.01.2015 11:06 3,8 C 2,8 C 99 % 1019,9 hPa 0,0 l/m 0 min 2 min 32 W/m 12,6 km/h (3 Bft)
26.01.2015 11:08 3,8 C 2,8 C 99 % 1019,9 hPa 0,0 l/m 0 min 2 min 32 W/m 10,5 km/h (2 Bft)
26.01.2015 11:10 3,8 C 2,8 C 99 % 1019,9 hPa 0,0 l/m 0 min 2 min 32 W/m 10,5 km/h (2 Bft)
26.01.2015 11:12 3,9 C 2,8 C 99 % 1019,9 hPa 0,0 l/m 0 min 2 min 32 W/m 18,8 km/h (3 Bft)
26.01.2015 11:14 3,9 C 2,8 C 99 % 1019,8 hPa 0,2 l/m 0 min 2 min 32 W/m 18,8 km/h (3 Bft)
26.01.2015 11:16 3,9 C 2,8 C 99 % 1019,8 hPa 0,0 l/m 0 min 2 min 31 W/m 16,7 km/h (3 Bft)
26.01.2015 11:18 3,9 C 2,8 C 99 % 1019,7 hPa 0,0 l/m 0 min 2 min 32 W/m 12,6 km/h (3 Bft)
26.01.2015 11:20 3,9 C 2,8 C 99 % 1019,7 hPa 0,0 l/m 0 min 2 min 30 W/m 14,6 km/h (3 Bft)
26.01.2015 11:22 3,9 C 2,8 C 99 % 1019,6 hPa 0,0 l/m 0 min 2 min 27 W/m 14,6 km/h (3 Bft)
26.01.2015 11:24 3,9 C 2,8 C 99 % 1019,6 hPa 0,0 l/m 0 min 2 min 26 W/m 10,5 km/h (2 Bft)
26.01.2015 11:26 3,9 C 2,8 C 99 % 1019,6 hPa 0,2 l/m 0 min 2 min 26 W/m 16,7 km/h (3 Bft)
26.01.2015 11:28 3,9 C 2,8 C 99 % 1019,5 hPa 0,0 l/m 0 min 2 min 26 W/m 14,6 km/h (3 Bft)
26.01.2015 11:30 3,9 C 2,8 C 99 % 1019,4 hPa 0,0 l/m 0 min 2 min 27 W/m 14,6 km/h (3 Bft)
26.01.2015 11:32 4,0 C 2,8 C 99 % 1019,4 hPa 0,0 l/m 0 min 2 min 25 W/m 14,6 km/h (3 Bft)
26.01.2015 11:34 4,0 C 2,8 C 99 % 1019,3 hPa 0,0 l/m 0 min 2 min 26 W/m 14,6 km/h (3 Bft)
26.01.2015 11:36 4,0 C 2,8 C 99 % 1019,3 hPa 0,0 l/m 0 min 2 min 29 W/m 16,7 km/h (3 Bft)
26.01.2015 11:38 4,0 C 2,8 C 99 % 1019,3 hPa 0,0 l/m 0 min 2 min 34 W/m 12,6 km/h (3 Bft)
26.01.2015 11:40 4,0 C 3,3 C 99 % 1019,2 hPa 0,0 l/m 0 min 2 min 42 W/m 16,7 km/h (3 Bft)
26.01.2015 11:42 4,1 C 3,3 C 99 % 1019,2 hPa 0,0 l/m 0 min 2 min 45 W/m 14,6 km/h (3 Bft)
26.01.2015 11:44 4,1 C 3,3 C 99 % 1019,1 hPa 0,0 l/m 0 min 2 min 44 W/m 14,6 km/h (3 Bft)
26.01.2015 11:46 4,1 C 3,3 C 99 % 1019,2 hPa 0,0 l/m 0 min 2 min 45 W/m 16,7 km/h (3 Bft)
26.01.2015 11:48 4,1 C 3,3 C 99 % 1019,2 hPa 0,0 l/m 0 min 0 min 46 W/m 18,8 km/h (3 Bft)
26.01.2015 11:50 4,1 C 3,3 C 99 % 1019,1 hPa 0,0 l/m 0 min 0 min 47 W/m 20,9 km/h (4 Bft)
26.01.2015 11:52 4,1 C 3,3 C 99 % 1019,1 hPa 0,0 l/m 0 min 2 min 53 W/m 14,6 km/h (3 Bft)
26.01.2015 11:54 4,2 C 3,3 C 99 % 1019,0 hPa 0,0 l/m 0 min 2 min 53 W/m 14,6 km/h (3 Bft)
26.01.2015 11:56 4,2 C 3,3 C 99 % 1019,0 hPa 0,0 l/m 0 min 2 min 53 W/m 14,6 km/h (3 Bft)
26.01.2015 11:58 4,2 C 3,3 C 99 % 1019,0 hPa 0,2 l/m 0 min 0 min 45 W/m 18,8 km/h (3 Bft)
26.01.2015 12:00 4,2 C 3,3 C 99 % 1019,0 hPa 0,0 l/m 0 min 0 min 38 W/m 18,8 km/h (3 Bft)
26.01.2015 12:02 4,2 C 3,3 C 99 % 1019,0 hPa 0,0 l/m 0 min 0 min 34 W/m 16,7 km/h (3 Bft)
26.01.2015 12:06 4,2 C 3,3 C 99 % 1019,0 hPa 0,0 l/m 0 min 0 min 33 W/m 16,7 km/h (3 Bft)
26.01.2015 12:08 4,2 C 3,3 C 99 % 1018,9 hPa 0,0 l/m 0 min 0 min 31 W/m 12,6 km/h (3 Bft)
26.01.2015 12:10 4,2 C 3,3 C 99 % 1018,9 hPa 0,0 l/m 0 min 0 min 30 W/m 14,6 km/h (3 Bft)
26.01.2015 12:12 4,3 C 3,3 C 99 % 1018,8 hPa 0,0 l/m 0 min 0 min 28 W/m 14,6 km/h (3 Bft)
26.01.2015 12:14 4,3 C 3,3 C 99 % 1018,8 hPa 0,0 l/m 0 min 0 min 29 W/m 12,6 km/h (3 Bft)
26.01.2015 12:16 4,3 C 3,3 C 99 % 1018,8 hPa 0,0 l/m 0 min 0 min 30 W/m 18,8 km/h (3 Bft)
26.01.2015 12:18 4,3 C 3,3 C 99 % 1018,7 hPa 0,0 l/m 0 min 0 min 30 W/m 12,6 km/h (3 Bft)
26.01.2015 12:20 4,3 C 3,3 C 99 % 1018,7 hPa 0,0 l/m 0 min 0 min 29 W/m 12,6 km/h (3 Bft)
26.01.2015 12:22 4,3 C 3,3 C 99 % 1018,7 hPa 0,0 l/m 0 min 0 min 30 W/m 10,5 km/h (2 Bft)
26.01.2015 12:24 4,3 C 3,3 C 99 % 1018,7 hPa 0,0 l/m 0 min 0 min 29 W/m 18,8 km/h (3 Bft)
26.01.2015 12:26 4,3 C 3,3 C 99 % 1018,6 hPa 0,0 l/m 0 min 0 min 30 W/m 18,8 km/h (3 Bft)
26.01.2015 12:28 4,3 C 3,3 C 99 % 1018,5 hPa 0,0 l/m 0 min 0 min 32 W/m 20,9 km/h (4 Bft)
26.01.2015 12:30 4,3 C 3,3 C 99 % 1018,4 hPa 0,0 l/m 0 min 0 min 35 W/m 14,6 km/h (3 Bft)
26.01.2015 12:32 4,3 C 3,3 C 99 % 1018,4 hPa 0,0 l/m 0 min 0 min 37 W/m 14,6 km/h (3 Bft)
26.01.2015 12:34 4,4 C 3,3 C 99 % 1018,4 hPa 0,0 l/m 0 min 0 min 37 W/m 20,9 km/h (4 Bft)
26.01.2015 12:36 4,4 C 3,3 C 99 % 1018,4 hPa 0,0 l/m 0 min 0 min 36 W/m 23,0 km/h (4 Bft)
26.01.2015 12:38 4,4 C 3,3 C 99 % 1018,3 hPa 0,0 l/m 0 min 0 min 33 W/m 16,7 km/h (3 Bft)
26.01.2015 12:40 4,4 C 3,3 C 99 % 1018,3 hPa 0,0 l/m 0 min 0 min 31 W/m 18,8 km/h (3 Bft)
26.01.2015 12:42 4,4 C 3,3 C 99 % 1018,3 hPa 0,0 l/m 0 min 0 min 34 W/m 16,7 km/h (3 Bft)
26.01.2015 12:44 4,4 C 3,3 C 99 % 1018,3 hPa 0,0 l/m 0 min 0 min 32 W/m 16,7 km/h (3 Bft)
26.01.2015 12:46 4,4 C 3,3 C 99 % 1018,3 hPa 0,0 l/m 0 min 0 min 27 W/m 16,7 km/h (3 Bft)
26.01.2015 12:48 4,4 C 3,3 C 99 % 1018,2 hPa 0,0 l/m 0 min 0 min 32 W/m 16,7 km/h (3 Bft)
26.01.2015 12:50 4,4 C 3,3 C 99 % 1018,2 hPa 0,0 l/m 0 min 0 min 34 W/m 14,6 km/h (3 Bft)
26.01.2015 12:52 4,5 C 3,3 C 99 % 1018,2 hPa 0,0 l/m 0 min 0 min 33 W/m 16,7 km/h (3 Bft)
26.01.2015 12:54 4,5 C 3,3 C 99 % 1018,2 hPa 0,0 l/m 0 min 0 min 33 W/m 14,6 km/h (3 Bft)
26.01.2015 12:56 4,5 C 3,3 C 99 % 1018,2 hPa 0,0 l/m 0 min 0 min 32 W/m 18,8 km/h (3 Bft)
26.01.2015 12:58 4,5 C 3,3 C 99 % 1018,1 hPa 0,0 l/m 0 min 0 min 33 W/m 12,6 km/h (3 Bft)
26.01.2015 13:00 4,5 C 3,3 C 99 % 1018,1 hPa 0,0 l/m 0 min 0 min 35 W/m 14,6 km/h (3 Bft)
26.01.2015 13:02 4,5 C 3,3 C 99 % 1018,2 hPa 0,0 l/m 0 min 0 min 34 W/m 14,6 km/h (3 Bft)
26.01.2015 13:04 4,6 C 3,3 C 99 % 1018,0 hPa 0,0 l/m 0 min 0 min 35 W/m 14,6 km/h (3 Bft)
26.01.2015 13:06 4,5 C 3,3 C 99 % 1018,0 hPa 0,0 l/m 0 min 0 min 33 W/m 12,6 km/h (3 Bft)
26.01.2015 13:08 4,6 C 3,3 C 99 % 1018,0 hPa 0,0 l/m 0 min 0 min 33 W/m 18,8 km/h (3 Bft)
26.01.2015 13:10 4,6 C 3,3 C 99 % 1017,9 hPa 0,0 l/m 0 min 0 min 33 W/m 14,6 km/h (3 Bft)
26.01.2015 13:12 4,6 C 3,3 C 99 % 1017,9 hPa 0,0 l/m 0 min 0 min 32 W/m 20,9 km/h (4 Bft)
26.01.2015 13:14 4,6 C 3,3 C 99 % 1017,9 hPa 0,0 l/m 0 min 0 min 32 W/m 14,6 km/h (3 Bft)
26.01.2015 13:16 4,6 C 3,3 C 99 % 1017,9 hPa 0,0 l/m 0 min 0 min 33 W/m 14,6 km/h (3 Bft)
26.01.2015 13:18 4,6 C 3,3 C 99 % 1017,8 hPa 0,0 l/m 0 min 0 min 35 W/m 14,6 km/h (3 Bft)
26.01.2015 13:20 4,6 C 3,3 C 99 % 1017,8 hPa 0,0 l/m 0 min 0 min 36 W/m 18,8 km/h (3 Bft)
26.01.2015 13:22 4,6 C 3,3 C 99 % 1017,7 hPa 0,0 l/m 0 min 0 min 40 W/m 18,8 km/h (3 Bft)
26.01.2015 13:24 4,6 C 3,9 C 99 % 1017,7 hPa 0,0 l/m 0 min 0 min 42 W/m 14,6 km/h (3 Bft)
26.01.2015 13:26 4,7 C 3,9 C 99 % 1017,7 hPa 0,0 l/m 0 min 0 min 40 W/m 14,6 km/h (3 Bft)
26.01.2015 13:28 4,7 C 3,9 C 99 % 1017,6 hPa 0,0 l/m 0 min 0 min 38 W/m 14,6 km/h (3 Bft)
26.01.2015 13:30 4,7 C 3,9 C 99 % 1017,6 hPa 0,0 l/m 0 min 0 min 37 W/m 14,6 km/h (3 Bft)
26.01.2015 13:32 4,7 C 3,9 C 99 % 1017,7 hPa 0,0 l/m 0 min 0 min 37 W/m 10,5 km/h (2 Bft)
26.01.2015 13:34 4,7 C 3,9 C 99 % 1017,7 hPa 0,0 l/m 0 min 0 min 35 W/m 18,8 km/h (3 Bft)
26.01.2015 13:36 4,7 C 3,9 C 99 % 1017,6 hPa 0,0 l/m 0 min 0 min 34 W/m 16,7 km/h (3 Bft)
26.01.2015 13:38 4,7 C 3,9 C 99 % 1017,6 hPa 0,0 l/m 0 min 0 min 32 W/m 10,5 km/h (2 Bft)
26.01.2015 13:40 4,7 C 3,9 C 99 % 1017,6 hPa 0,0 l/m 0 min 0 min 32 W/m 14,6 km/h (3 Bft)
26.01.2015 13:42 4,7 C 3,9 C 99 % 1017,6 hPa 0,0 l/m 0 min 0 min 30 W/m 16,7 km/h (3 Bft)
26.01.2015 13:44 4,7 C 3,9 C 99 % 1017,5 hPa 0,0 l/m 0 min 0 min 33 W/m 14,6 km/h (3 Bft)
26.01.2015 13:46 4,8 C 3,9 C 99 % 1017,5 hPa 0,0 l/m 0 min 0 min 34 W/m 10,5 km/h (2 Bft)
26.01.2015 13:48 4,8 C 3,9 C 99 % 1017,4 hPa 0,0 l/m 0 min 0 min 37 W/m 16,7 km/h (3 Bft)
26.01.2015 13:50 4,8 C 3,9 C 99 % 1017,4 hPa 0,0 l/m 0 min 0 min 35 W/m 10,5 km/h (2 Bft)
26.01.2015 13:52 4,8 C 3,9 C 99 % 1017,4 hPa 0,0 l/m 0 min 0 min 40 W/m 12,6 km/h (3 Bft)
26.01.2015 13:54 4,8 C 3,9 C 99 % 1017,4 hPa 0,0 l/m 0 min 0 min 39 W/m 14,6 km/h (3 Bft)
26.01.2015 13:56 4,8 C 3,9 C 99 % 1017,4 hPa 0,0 l/m 0 min 0 min 35 W/m 12,6 km/h (3 Bft)
26.01.2015 13:58 4,8 C 3,9 C 99 % 1017,4 hPa 0,0 l/m 0 min 0 min 36 W/m 12,6 km/h (3 Bft)
26.01.2015 14:00 4,9 C 3,9 C 99 % 1017,4 hPa 0,0 l/m 0 min 0 min 34 W/m 10,5 km/h (2 Bft)
26.01.2015 14:02 4,9 C 3,9 C 99 % 1017,3 hPa 0,0 l/m 0 min 0 min 30 W/m 10,5 km/h (2 Bft)
26.01.2015 14:04 4,9 C 3,9 C 99 % 1017,3 hPa 0,0 l/m 0 min 0 min 36 W/m 18,8 km/h (3 Bft)
26.01.2015 14:06 4,9 C 3,9 C 99 % 1017,3 hPa 0,0 l/m 0 min 0 min 34 W/m 14,6 km/h (3 Bft)
26.01.2015 14:08 4,9 C 3,9 C 99 % 1017,3 hPa 0,0 l/m 0 min 0 min 35 W/m 12,6 km/h (3 Bft)
26.01.2015 14:10 4,9 C 3,9 C 99 % 1017,3 hPa 0,0 l/m 0 min 0 min 36 W/m 18,8 km/h (3 Bft)
26.01.2015 14:12 4,9 C 3,9 C 99 % 1017,3 hPa 0,0 l/m 0 min 0 min 31 W/m 12,6 km/h (3 Bft)
26.01.2015 14:14 4,9 C 3,9 C 99 % 1017,3 hPa 0,0 l/m 0 min 0 min 33 W/m 18,8 km/h (3 Bft)
26.01.2015 14:16 5,0 C 3,9 C 99 % 1017,3 hPa 0,0 l/m 0 min 0 min 27 W/m 16,7 km/h (3 Bft)
26.01.2015 14:18 5,0 C 3,9 C 99 % 1017,2 hPa 0,0 l/m 0 min 0 min 29 W/m 18,8 km/h (3 Bft)
26.01.2015 14:20 5,0 C 3,9 C 99 % 1017,2 hPa 0,0 l/m 0 min 0 min 31 W/m 18,8 km/h (3 Bft)
26.01.2015 14:22 5,0 C 3,9 C 99 % 1017,2 hPa 0,0 l/m 0 min 0 min 32 W/m 18,8 km/h (3 Bft)
26.01.2015 14:24 5,1 C 3,9 C 99 % 1017,1 hPa 0,2 l/m 0 min 0 min 29 W/m 16,7 km/h (3 Bft)
26.01.2015 14:26 5,1 C 3,9 C 99 % 1017,1 hPa 0,0 l/m 0 min 2 min 32 W/m 23,0 km/h (4 Bft)
26.01.2015 14:28 5,1 C 3,9 C 99 % 1017,0 hPa 0,0 l/m 0 min 2 min 32 W/m 23,0 km/h (4 Bft)
26.01.2015 14:30 5,1 C 3,9 C 99 % 1017,0 hPa 0,0 l/m 0 min 2 min 31 W/m 14,6 km/h (3 Bft)
26.01.2015 14:32 5,1 C 3,9 C 99 % 1016,9 hPa 0,0 l/m 0 min 0 min 33 W/m 14,6 km/h (3 Bft)
26.01.2015 14:34 5,1 C 3,9 C 99 % 1016,9 hPa 0,0 l/m 0 min 0 min 38 W/m 18,8 km/h (3 Bft)
26.01.2015 14:36 5,1 C 3,9 C 99 % 1016,9 hPa 0,0 l/m 0 min 0 min 40 W/m 14,6 km/h (3 Bft)
26.01.2015 14:38 5,1 C 3,9 C 99 % 1016,9 hPa 0,0 l/m 0 min 0 min 35 W/m 16,7 km/h (3 Bft)
26.01.2015 14:40 5,1 C 3,9 C 99 % 1016,9 hPa 0,0 l/m 0 min 0 min 33 W/m 18,8 km/h (3 Bft)
26.01.2015 14:42 5,2 C 3,9 C 99 % 1016,9 hPa 0,0 l/m 0 min 0 min 34 W/m 18,8 km/h (3 Bft)
26.01.2015 14:44 5,2 C 3,9 C 99 % 1016,9 hPa 0,0 l/m 0 min 2 min 30 W/m 20,9 km/h (4 Bft)
26.01.2015 14:46 5,2 C 3,9 C 99 % 1016,8 hPa 0,0 l/m 0 min 2 min 31 W/m 20,9 km/h (4 Bft)
26.01.2015 14:48 5,2 C 3,9 C 99 % 1016,8 hPa 0,0 l/m 0 min 2 min 40 W/m 23,0 km/h (4 Bft)
26.01.2015 14:50 5,2 C 3,9 C 99 % 1016,8 hPa 0,0 l/m 0 min 2 min 48 W/m 16,7 km/h (3 Bft)
26.01.2015 14:52 5,2 C 4,4 C 99 % 1016,8 hPa 0,0 l/m 0 min 2 min 55 W/m 14,6 km/h (3 Bft)
26.01.2015 14:54 5,2 C 4,4 C 99 % 1016,7 hPa 0,0 l/m 0 min 2 min 56 W/m 18,8 km/h (3 Bft)
26.01.2015 14:56 5,2 C 4,4 C 99 % 1016,8 hPa 0,0 l/m 0 min 2 min 53 W/m 23,0 km/h (4 Bft)
26.01.2015 14:58 5,2 C 4,4 C 99 % 1016,8 hPa 0,0 l/m 0 min 2 min 47 W/m 18,8 km/h (3 Bft)
26.01.2015 15:00 5,3 C 4,4 C 99 % 1016,8 hPa 0,2 l/m 0 min 2 min 45 W/m 12,6 km/h (3 Bft)
26.01.2015 15:02 5,3 C 4,4 C 99 % 1016,8 hPa 0,0 l/m 0 min 2 min 41 W/m 16,7 km/h (3 Bft)
26.01.2015 15:04 5,3 C 4,4 C 99 % 1016,8 hPa 0,0 l/m 0 min 2 min 42 W/m 16,7 km/h (3 Bft)
26.01.2015 15:06 5,3 C 4,4 C 99 % 1016,8 hPa 0,0 l/m 0 min 2 min 44 W/m 16,7 km/h (3 Bft)
26.01.2015 15:08 5,3 C 4,4 C 99 % 1016,7 hPa 0,0 l/m 0 min 2 min 48 W/m 12,6 km/h (3 Bft)
26.01.2015 15:10 5,3 C 4,4 C 99 % 1016,7 hPa 0,0 l/m 0 min 2 min 47 W/m 20,9 km/h (4 Bft)
26.01.2015 15:12 5,3 C 4,4 C 99 % 1016,7 hPa 0,0 l/m 0 min 2 min 41 W/m 16,7 km/h (3 Bft)
26.01.2015 15:14 5,4 C 4,4 C 99 % 1016,7 hPa 0,0 l/m 0 min 2 min 44 W/m 16,7 km/h (3 Bft)
26.01.2015 15:16 5,4 C 4,4 C 99 % 1016,7 hPa 0,0 l/m 0 min 2 min 52 W/m 14,6 km/h (3 Bft)
26.01.2015 15:18 5,4 C 4,4 C 99 % 1016,7 hPa 0,0 l/m 0 min 2 min 50 W/m 14,6 km/h (3 Bft)
26.01.2015 15:20 5,4 C 4,4 C 99 % 1016,6 hPa 0,0 l/m 0 min 2 min 48 W/m 16,7 km/h (3 Bft)
26.01.2015 15:22 5,4 C 4,4 C 99 % 1016,6 hPa 0,0 l/m 0 min 2 min 47 W/m 14,6 km/h (3 Bft)
26.01.2015 15:24 5,4 C 4,4 C 99 % 1016,5 hPa 0,0 l/m 0 min 2 min 46 W/m 18,8 km/h (3 Bft)
26.01.2015 15:26 5,4 C 4,4 C 99 % 1016,5 hPa 0,0 l/m 0 min 2 min 46 W/m 20,9 km/h (4 Bft)
26.01.2015 15:28 5,4 C 4,4 C 99 % 1016,5 hPa 0,0 l/m 0 min 2 min 40 W/m 18,8 km/h (3 Bft)
26.01.2015 15:30 5,5 C 4,4 C 99 % 1016,5 hPa 0,0 l/m 0 min 2 min 36 W/m 16,7 km/h (3 Bft)
26.01.2015 15:32 5,5 C 4,4 C 99 % 1016,5 hPa 0,0 l/m 0 min 2 min 31 W/m 16,7 km/h (3 Bft)
26.01.2015 15:34 5,5 C 4,4 C 99 % 1016,5 hPa 0,0 l/m 0 min 2 min 28 W/m 18,8 km/h (3 Bft)
26.01.2015 15:36 5,5 C 4,4 C 99 % 1016,4 hPa 0,0 l/m 0 min 2 min 32 W/m 18,8 km/h (3 Bft)
26.01.2015 15:38 5,5 C 4,4 C 99 % 1016,4 hPa 0,0 l/m 0 min 2 min 35 W/m 18,8 km/h (3 Bft)
26.01.2015 15:40 5,6 C 4,4 C 99 % 1016,4 hPa 0,0 l/m 0 min 2 min 38 W/m 14,6 km/h (3 Bft)
26.01.2015 15:42 5,6 C 4,4 C 99 % 1016,4 hPa 0,0 l/m 0 min 2 min 38 W/m 18,8 km/h (3 Bft)
26.01.2015 15:44 5,6 C 4,4 C 99 % 1016,4 hPa 0,2 l/m 0 min 2 min 37 W/m 14,6 km/h (3 Bft)
26.01.2015 15:46 5,6 C 4,4 C 99 % 1016,3 hPa 0,0 l/m 0 min 2 min 33 W/m 20,9 km/h (4 Bft)
26.01.2015 15:48 5,6 C 4,4 C 99 % 1016,3 hPa 0,0 l/m 0 min 2 min 32 W/m 14,6 km/h (3 Bft)
26.01.2015 15:50 5,6 C 4,4 C 99 % 1016,3 hPa 0,0 l/m 0 min 2 min 32 W/m 12,6 km/h (3 Bft)
26.01.2015 15:52 5,6 C 4,4 C 99 % 1016,3 hPa 0,0 l/m 0 min 2 min 28 W/m 23,0 km/h (4 Bft)
26.01.2015 15:54 5,6 C 4,4 C 99 % 1016,3 hPa 0,0 l/m 0 min 2 min 31 W/m 16,7 km/h (3 Bft)
26.01.2015 15:56 5,7 C 4,4 C 99 % 1016,3 hPa 0,0 l/m 0 min 2 min 34 W/m 14,6 km/h (3 Bft)
26.01.2015 15:58 5,7 C 4,4 C 99 % 1016,3 hPa 0,0 l/m 0 min 2 min 30 W/m 18,8 km/h (3 Bft)
26.01.2015 16:00 5,7 C 4,4 C 99 % 1016,4 hPa 0,0 l/m 0 min 2 min 26 W/m 14,6 km/h (3 Bft)
26.01.2015 16:02 5,7 C 4,4 C 99 % 1016,4 hPa 0,0 l/m 0 min 2 min 24 W/m 14,6 km/h (3 Bft)
26.01.2015 16:04 5,7 C 4,4 C 99 % 1016,3 hPa 0,0 l/m 0 min 2 min 20 W/m 14,6 km/h (3 Bft)
26.01.2015 16:06 5,7 C 4,4 C 99 % 1016,3 hPa 0,0 l/m 0 min 2 min 18 W/m 18,8 km/h (3 Bft)
26.01.2015 16:08 5,7 C 4,4 C 99 % 1016,4 hPa 0,0 l/m 0 min 2 min 20 W/m 18,8 km/h (3 Bft)
26.01.2015 16:10 5,7 C 4,4 C 99 % 1016,3 hPa 0,0 l/m 0 min 2 min 22 W/m 16,7 km/h (3 Bft)
26.01.2015 16:12 5,7 C 4,4 C 99 % 1016,4 hPa 0,0 l/m 0 min 2 min 17 W/m 16,7 km/h (3 Bft)
26.01.2015 16:14 5,7 C 4,4 C 99 % 1016,3 hPa 0,0 l/m 0 min 2 min 13 W/m 20,9 km/h (4 Bft)
26.01.2015 16:16 5,7 C 4,4 C 99 % 1016,3 hPa 0,0 l/m 0 min 2 min 12 W/m 16,7 km/h (3 Bft)
26.01.2015 16:18 5,8 C 4,4 C 99 % 1016,3 hPa 0,0 l/m 0 min 2 min 12 W/m 14,6 km/h (3 Bft)
26.01.2015 16:20 5,8 C 4,4 C 99 % 1016,4 hPa 0,0 l/m 0 min 2 min 11 W/m 20,9 km/h (4 Bft)
26.01.2015 16:22 5,8 C 4,4 C 99 % 1016,4 hPa 0,0 l/m 0 min 2 min 10 W/m 14,6 km/h (3 Bft)
26.01.2015 16:24 5,8 C 4,4 C 99 % 1016,3 hPa 0,0 l/m 0 min 2 min 11 W/m 16,7 km/h (3 Bft)
26.01.2015 16:26 5,8 C 4,4 C 99 % 1016,3 hPa 0,0 l/m 0 min 2 min 11 W/m 20,9 km/h (4 Bft)
26.01.2015 16:28 5,8 C 4,4 C 99 % 1016,3 hPa 0,0 l/m 0 min 2 min 9 W/m 18,8 km/h (3 Bft)
26.01.2015 16:30 5,8 C 4,4 C 99 % 1016,3 hPa 0,0 l/m 0 min 2 min 7 W/m 20,9 km/h (4 Bft)
26.01.2015 16:32 5,8 C 4,4 C 99 % 1016,4 hPa 0,0 l/m 0 min 2 min 7 W/m 16,7 km/h (3 Bft)
26.01.2015 16:34 5,8 C 4,4 C 99 % 1016,4 hPa 0,0 l/m 0 min 2 min 6 W/m 16,7 km/h (3 Bft)
26.01.2015 16:36 5,8 C 4,4 C 99 % 1016,4 hPa 0,0 l/m 0 min 2 min 7 W/m 16,7 km/h (3 Bft)
26.01.2015 16:38 5,9 C 4,4 C 99 % 1016,5 hPa 0,0 l/m 0 min 2 min 7 W/m 23,0 km/h (4 Bft)
26.01.2015 16:40 5,9 C 4,4 C 99 % 1016,4 hPa 0,0 l/m 0 min 2 min 8 W/m 12,6 km/h (3 Bft)
26.01.2015 16:42 5,9 C 4,4 C 99 % 1016,4 hPa 0,0 l/m 0 min 2 min 6 W/m 18,8 km/h (3 Bft)
26.01.2015 16:44 5,9 C 4,4 C 99 % 1016,5 hPa 0,0 l/m 0 min 2 min 5 W/m 18,8 km/h (3 Bft)
26.01.2015 16:46 5,9 C 4,4 C 99 % 1016,5 hPa 0,0 l/m 0 min 2 min 6 W/m 14,6 km/h (3 Bft)
26.01.2015 16:48 5,9 C 4,4 C 99 % 1016,5 hPa 0,0 l/m 0 min 2 min 4 W/m 14,6 km/h (3 Bft)
26.01.2015 16:50 5,9 C 4,4 C 99 % 1016,6 hPa 0,2 l/m 0 min 2 min 0 W/m 20,9 km/h (4 Bft)
26.01.2015 16:52 5,9 C 4,4 C 99 % 1016,5 hPa 0,0 l/m 0 min 2 min 0 W/m 16,7 km/h (3 Bft)
26.01.2015 16:54 5,9 C 4,4 C 99 % 1016,5 hPa 0,0 l/m 0 min 2 min 0 W/m 14,6 km/h (3 Bft)
26.01.2015 16:56 5,9 C 4,4 C 99 % 1016,5 hPa 0,0 l/m 0 min 2 min 0 W/m 14,6 km/h (3 Bft)
26.01.2015 16:58 5,9 C 4,4 C 99 % 1016,6 hPa 0,0 l/m 0 min 2 min 0 W/m 16,7 km/h (3 Bft)
26.01.2015 17:00 6,0 C 4,4 C 99 % 1016,6 hPa 0,0 l/m 0 min 2 min 0 W/m 14,6 km/h (3 Bft)
26.01.2015 17:02 6,0 C 4,4 C 99 % 1016,6 hPa 0,0 l/m 0 min 2 min 0 W/m 12,6 km/h (3 Bft)
26.01.2015 17:04 6,0 C 4,4 C 99 % 1016,7 hPa 0,0 l/m 0 min 2 min 0 W/m 14,6 km/h (3 Bft)
26.01.2015 17:06 6,0 C 4,4 C 99 % 1016,7 hPa 0,2 l/m 0 min 2 min 0 W/m 10,5 km/h (2 Bft)
26.01.2015 17:08 6,0 C 4,4 C 99 % 1016,7 hPa 0,0 l/m 0 min 2 min 0 W/m 14,6 km/h (3 Bft)
26.01.2015 17:10 6,0 C 5,0 C 99 % 1016,8 hPa 0,0 l/m 0 min 2 min 0 W/m 14,6 km/h (3 Bft)
26.01.2015 17:12 6,0 C 5,0 C 99 % 1016,8 hPa 0,0 l/m 0 min 2 min 0 W/m 18,8 km/h (3 Bft)
26.01.2015 17:14 6,1 C 5,0 C 99 % 1016,9 hPa 0,2 l/m 0 min 2 min 0 W/m 23,0 km/h (4 Bft)
26.01.2015 17:16 6,1 C 5,0 C 99 % 1016,8 hPa 0,0 l/m 0 min 2 min 0 W/m 25,1 km/h (4 Bft)
26.01.2015 17:18 6,1 C 5,0 C 99 % 1016,9 hPa 0,0 l/m 0 min 2 min 0 W/m 20,9 km/h (4 Bft)
26.01.2015 17:20 6,1 C 5,0 C 99 % 1017,0 hPa 0,0 l/m 0 min 2 min 0 W/m 16,7 km/h (3 Bft)
26.01.2015 17:22 6,2 C 5,0 C 99 % 1017,0 hPa 0,0 l/m 0 min 2 min 0 W/m 25,1 km/h (4 Bft)
26.01.2015 17:24 6,2 C 5,0 C 99 % 1017,1 hPa 0,0 l/m 0 min 2 min 0 W/m 18,8 km/h (3 Bft)
26.01.2015 17:26 6,2 C 5,0 C 99 % 1017,1 hPa 0,0 l/m 0 min 2 min 0 W/m 16,7 km/h (3 Bft)
26.01.2015 17:28 6,2 C 5,0 C 99 % 1017,2 hPa 0,0 l/m 0 min 2 min 0 W/m 14,6 km/h (3 Bft)
26.01.2015 17:30 6,3 C 5,0 C 99 % 1017,3 hPa 0,0 l/m 0 min 2 min 0 W/m 16,7 km/h (3 Bft)
26.01.2015 17:32 6,3 C 5,0 C 99 % 1017,3 hPa 0,0 l/m 0 min 2 min 0 W/m 14,6 km/h (3 Bft)
26.01.2015 17:34 6,3 C 5,0 C 99 % 1017,3 hPa 0,0 l/m 0 min 2 min 0 W/m 16,7 km/h (3 Bft)
26.01.2015 17:36 6,3 C 5,0 C 99 % 1017,3 hPa 0,0 l/m 0 min 2 min 0 W/m 12,6 km/h (3 Bft)
26.01.2015 17:38 6,3 C 5,0 C 99 % 1017,3 hPa 0,0 l/m 0 min 2 min 0 W/m 8,4 km/h (2 Bft)
26.01.2015 17:40 6,3 C 5,0 C 99 % 1017,3 hPa 0,0 l/m 0 min 2 min 0 W/m 14,6 km/h (3 Bft)
26.01.2015 17:42 6,3 C 5,0 C 99 % 1017,3 hPa 0,0 l/m 0 min 2 min 0 W/m 18,8 km/h (3 Bft)
26.01.2015 17:44 6,3 C 4,4 C 99 % 1017,3 hPa 0,0 l/m 0 min 2 min 0 W/m 14,6 km/h (3 Bft)
26.01.2015 17:46 6,3 C 4,4 C 99 % 1017,4 hPa 0,0 l/m 0 min 2 min 0 W/m 18,8 km/h (3 Bft)
26.01.2015 17:48 6,3 C 4,4 C 99 % 1017,4 hPa 0,0 l/m 0 min 2 min 0 W/m 16,7 km/h (3 Bft)
26.01.2015 17:50 6,3 C 4,4 C 99 % 1017,4 hPa 0,0 l/m 0 min 2 min 0 W/m 16,7 km/h (3 Bft)
26.01.2015 17:52 6,2 C 4,4 C 99 % 1017,4 hPa 0,0 l/m 0 min 0 min 0 W/m 12,6 km/h (3 Bft)
26.01.2015 17:54 6,2 C 4,4 C 99 % 1017,5 hPa 0,0 l/m 0 min 0 min 0 W/m 12,6 km/h (3 Bft)
26.01.2015 17:56 6,2 C 4,4 C 99 % 1017,5 hPa 0,0 l/m 0 min 0 min 0 W/m 12,6 km/h (3 Bft)
26.01.2015 17:58 6,2 C 4,4 C 99 % 1017,5 hPa 0,0 l/m 0 min 0 min 0 W/m 12,6 km/h (3 Bft)
26.01.2015 18:00 6,2 C 4,4 C 99 % 1017,5 hPa 0,0 l/m 0 min 0 min 0 W/m 14,6 km/h (3 Bft)
26.01.2015 18:02 6,2 C 4,4 C 99 % 1017,6 hPa 0,0 l/m 0 min 0 min 0 W/m 12,6 km/h (3 Bft)
26.01.2015 18:06 6,2 C 4,4 C 99 % 1017,6 hPa 0,0 l/m 0 min 0 min 0 W/m 16,7 km/h (3 Bft)
26.01.2015 18:08 6,1 C 4,4 C 99 % 1017,7 hPa 0,0 l/m 0 min 0 min 0 W/m 18,8 km/h (3 Bft)
26.01.2015 18:10 6,1 C 4,4 C 99 % 1017,7 hPa 0,0 l/m 0 min 0 min 0 W/m 12,6 km/h (3 Bft)
26.01.2015 18:12 6,1 C 4,4 C 99 % 1017,7 hPa 0,0 l/m 0 min 0 min 0 W/m 14,6 km/h (3 Bft)
26.01.2015 18:14 6,1 C 4,4 C 99 % 1017,7 hPa 0,0 l/m 0 min 0 min 0 W/m 16,7 km/h (3 Bft)
26.01.2015 18:16 6,1 C 4,4 C 99 % 1017,7 hPa 0,0 l/m 0 min 0 min 0 W/m 10,5 km/h (2 Bft)
26.01.2015 18:18 6,0 C 3,9 C 99 % 1017,7 hPa 0,0 l/m 0 min 0 min 0 W/m 18,8 km/h (3 Bft)
26.01.2015 18:20 6,0 C 3,9 C 99 % 1017,6 hPa 0,0 l/m 0 min 0 min 0 W/m 12,6 km/h (3 Bft)
26.01.2015 18:22 5,9 C 3,9 C 99 % 1017,7 hPa 0,0 l/m 0 min 0 min 0 W/m 23,0 km/h (4 Bft)
26.01.2015 18:24 5,9 C 3,9 C 99 % 1017,7 hPa 0,0 l/m 0 min 0 min 0 W/m 14,6 km/h (3 Bft)
26.01.2015 18:26 5,9 C 3,9 C 99 % 1017,7 hPa 0,0 l/m 0 min 0 min 0 W/m 16,7 km/h (3 Bft)
26.01.2015 18:28 5,8 C 3,9 C 99 % 1017,7 hPa 0,0 l/m 0 min 0 min 0 W/m 14,6 km/h (3 Bft)
26.01.2015 18:30 5,8 C 3,9 C 99 % 1017,8 hPa 0,0 l/m 0 min 0 min 0 W/m 20,9 km/h (4 Bft)
26.01.2015 18:32 5,7 C 3,9 C 99 % 1017,9 hPa 0,0 l/m 0 min 0 min 0 W/m 23,0 km/h (4 Bft)
26.01.2015 18:34 5,7 C 3,9 C 99 % 1017,8 hPa 0,0 l/m 0 min 0 min 0 W/m 14,6 km/h (3 Bft)
26.01.2015 18:36 5,7 C 3,9 C 99 % 1017,9 hPa 0,0 l/m 0 min 0 min 0 W/m 18,8 km/h (3 Bft)
26.01.2015 18:38 5,7 C 3,9 C 99 % 1017,9 hPa 0,0 l/m 0 min 0 min 0 W/m 12,6 km/h (3 Bft)
26.01.2015 18:40 5,6 C 3,9 C 99 % 1017,9 hPa 0,0 l/m 0 min 0 min 0 W/m 16,7 km/h (3 Bft)
26.01.2015 18:42 5,6 C 3,9 C 99 % 1017,9 hPa 0,0 l/m 0 min 0 min 0 W/m 20,9 km/h (4 Bft)
26.01.2015 18:44 5,6 C 3,9 C 99 % 1017,9 hPa 0,0 l/m 0 min 0 min 0 W/m 18,8 km/h (3 Bft)
26.01.2015 18:46 5,5 C 3,9 C 99 % 1017,9 hPa 0,0 l/m 0 min 0 min 0 W/m 25,1 km/h (4 Bft)
26.01.2015 18:48 5,4 C 3,9 C 99 % 1018,0 hPa 0,0 l/m 0 min 0 min 0 W/m 25,1 km/h (4 Bft)
26.01.2015 18:50 5,4 C 3,9 C 99 % 1018,0 hPa 0,0 l/m 0 min 2 min 0 W/m 25,1 km/h (4 Bft)
26.01.2015 18:52 5,3 C 3,3 C 99 % 1018,0 hPa 0,0 l/m 0 min 2 min 0 W/m 25,1 km/h (4 Bft)
26.01.2015 18:54 5,3 C 3,3 C 99 % 1018,0 hPa 0,2 l/m 0 min 2 min 0 W/m 31,4 km/h (5 Bft)
26.01.2015 18:56 5,3 C 3,3 C 99 % 1018,0 hPa 0,0 l/m 0 min 2 min 0 W/m 25,1 km/h (4 Bft)
26.01.2015 18:58 5,2 C 3,3 C 99 % 1018,1 hPa 0,0 l/m 0 min 2 min 0 W/m 20,9 km/h (4 Bft)
26.01.2015 19:00 5,2 C 3,3 C 99 % 1018,2 hPa 0,0 l/m 0 min 0 min 0 W/m 16,7 km/h (3 Bft)
26.01.2015 19:02 5,1 C 3,3 C 99 % 1018,3 hPa 0,0 l/m 0 min 0 min 0 W/m 27,2 km/h (4 Bft)
26.01.2015 19:04 5,1 C 3,3 C 99 % 1018,2 hPa 0,0 l/m 0 min 0 min 0 W/m 23,0 km/h (4 Bft)
26.01.2015 19:06 5,1 C 3,3 C 99 % 1018,3 hPa 0,0 l/m 0 min 0 min 0 W/m 18,8 km/h (3 Bft)
26.01.2015 19:08 5,1 C 3,3 C 99 % 1018,4 hPa 0,0 l/m 0 min 0 min 0 W/m 14,6 km/h (3 Bft)
26.01.2015 19:10 5,1 C 3,3 C 99 % 1018,4 hPa 0,0 l/m 0 min 0 min 0 W/m 18,8 km/h (3 Bft)
26.01.2015 19:12 5,0 C 3,3 C 99 % 1018,4 hPa 0,0 l/m 0 min 0 min 0 W/m 18,8 km/h (3 Bft)
26.01.2015 19:14 5,0 C 2,8 C 99 % 1018,5 hPa 0,0 l/m 0 min 0 min 0 W/m 14,6 km/h (3 Bft)
26.01.2015 19:16 4,9 C 2,8 C 99 % 1018,5 hPa 0,0 l/m 0 min 0 min 0 W/m 16,7 km/h (3 Bft)
26.01.2015 19:18 4,9 C 2,8 C 99 % 1018,5 hPa 0,0 l/m 0 min 0 min 0 W/m 16,7 km/h (3 Bft)
26.01.2015 19:20 4,9 C 2,8 C 99 % 1018,5 hPa 0,0 l/m 0 min 0 min 0 W/m 12,6 km/h (3 Bft)
26.01.2015 19:22 4,9 C 2,8 C 99 % 1018,5 hPa 0,0 l/m 0 min 0 min 0 W/m 18,8 km/h (3 Bft)
26.01.2015 19:24 4,8 C 2,8 C 99 % 1018,5 hPa 0,0 l/m 0 min 0 min 0 W/m 18,8 km/h (3 Bft)
26.01.2015 19:26 4,8 C 2,8 C 99 % 1018,5 hPa 0,0 l/m 0 min 0 min 0 W/m 14,6 km/h (3 Bft)
26.01.2015 19:28 4,8 C 2,8 C 99 % 1018,5 hPa 0,0 l/m 0 min 0 min 0 W/m 14,6 km/h (3 Bft)
26.01.2015 19:30 4,7 C 2,8 C 99 % 1018,5 hPa 0,0 l/m 0 min 0 min 0 W/m 12,6 km/h (3 Bft)
26.01.2015 19:32 4,7 C 2,8 C 99 % 1018,6 hPa 0,0 l/m 0 min 0 min 0 W/m 12,6 km/h (3 Bft)
26.01.2015 19:34 4,7 C 2,8 C 99 % 1018,6 hPa 0,0 l/m 0 min 0 min 0 W/m 16,7 km/h (3 Bft)
26.01.2015 19:36 4,7 C 2,8 C 99 % 1018,6 hPa 0,0 l/m 0 min 0 min 0 W/m 10,5 km/h (2 Bft)
26.01.2015 19:38 4,7 C 2,8 C 99 % 1018,6 hPa 0,0 l/m 0 min 0 min 0 W/m 14,6 km/h (3 Bft)
26.01.2015 19:40 4,7 C 2,8 C 99 % 1018,6 hPa 0,0 l/m 0 min 0 min 0 W/m 16,7 km/h (3 Bft)
26.01.2015 19:42 4,7 C 2,8 C 99 % 1018,6 hPa 0,0 l/m 0 min 0 min 0 W/m 8,4 km/h (2 Bft)
26.01.2015 19:44 4,7 C 3,3 C 99 % 1018,6 hPa 0,0 l/m 0 min 0 min 0 W/m 20,9 km/h (4 Bft)
26.01.2015 19:46 4,7 C 3,3 C 99 % 1018,6 hPa 0,0 l/m 0 min 0 min 0 W/m 20,9 km/h (4 Bft)
26.01.2015 19:48 4,6 C 3,3 C 99 % 1018,6 hPa 0,0 l/m 0 min 0 min 0 W/m 27,2 km/h (4 Bft)
26.01.2015 19:50 4,6 C 2,8 C 99 % 1018,7 hPa 0,0 l/m 0 min 0 min 0 W/m 18,8 km/h (3 Bft)
26.01.2015 19:52 4,6 C 2,8 C 99 % 1018,7 hPa 0,0 l/m 0 min 0 min 0 W/m 14,6 km/h (3 Bft)
26.01.2015 19:54 4,6 C 2,8 C 99 % 1018,7 hPa 0,0 l/m 0 min 0 min 0 W/m 14,6 km/h (3 Bft)
26.01.2015 19:56 4,6 C 2,8 C 99 % 1018,6 hPa 0,0 l/m 0 min 0 min 0 W/m 25,1 km/h (4 Bft)
26.01.2015 19:58 4,6 C 2,8 C 99 % 1018,7 hPa 0,0 l/m 0 min 0 min 0 W/m 18,8 km/h (3 Bft)
26.01.2015 20:00 4,5 C 2,8 C 99 % 1018,7 hPa 0,0 l/m 0 min 0 min 0 W/m 14,6 km/h (3 Bft)
26.01.2015 20:02 4,5 C 2,8 C 99 % 1018,7 hPa 0,0 l/m 0 min 0 min 0 W/m 16,7 km/h (3 Bft)
26.01.2015 20:04 4,5 C 2,8 C 99 % 1018,7 hPa 0,0 l/m 0 min 0 min 0 W/m 14,6 km/h (3 Bft)
26.01.2015 20:06 4,5 C 2,8 C 99 % 1018,7 hPa 0,0 l/m 0 min 0 min 0 W/m 14,6 km/h (3 Bft)
26.01.2015 20:08 4,4 C 2,8 C 99 % 1018,8 hPa 0,0 l/m 0 min 0 min 0 W/m 20,9 km/h (4 Bft)
26.01.2015 20:10 4,4 C 2,8 C 99 % 1018,8 hPa 0,0 l/m 0 min 0 min 0 W/m 20,9 km/h (4 Bft)
26.01.2015 20:12 4,4 C 2,8 C 99 % 1018,8 hPa 0,0 l/m 0 min 0 min 0 W/m 16,7 km/h (3 Bft)
26.01.2015 20:14 4,4 C 2,8 C 99 % 1018,8 hPa 0,0 l/m 0 min 0 min 0 W/m 16,7 km/h (3 Bft)
26.01.2015 20:16 4,3 C 2,8 C 99 % 1018,8 hPa 0,0 l/m 0 min 0 min 0 W/m 18,8 km/h (3 Bft)
26.01.2015 20:18 4,3 C 2,8 C 99 % 1018,9 hPa 0,0 l/m 0 min 0 min 0 W/m 14,6 km/h (3 Bft)
26.01.2015 20:20 4,3 C 2,8 C 99 % 1018,9 hPa 0,0 l/m 0 min 0 min 0 W/m 14,6 km/h (3 Bft)
26.01.2015 20:22 4,3 C 2,8 C 99 % 1018,8 hPa 0,0 l/m 0 min 0 min 0 W/m 20,9 km/h (4 Bft)
26.01.2015 20:24 4,3 C 2,8 C 99 % 1018,9 hPa 0,0 l/m 0 min 0 min 0 W/m 14,6 km/h (3 Bft)
26.01.2015 20:26 4,3 C 2,2 C 99 % 1018,9 hPa 0,0 l/m 0 min 0 min 0 W/m 18,8 km/h (3 Bft)
26.01.2015 20:28 4,2 C 2,8 C 99 % 1019,0 hPa 0,0 l/m 0 min 0 min 0 W/m 16,7 km/h (3 Bft)
26.01.2015 20:30 4,2 C 2,8 C 99 % 1019,0 hPa 0,0 l/m 0 min 0 min 0 W/m 16,7 km/h (3 Bft)
26.01.2015 20:32 4,2 C 2,8 C 99 % 1018,9 hPa 0,0 l/m 0 min 0 min 0 W/m 14,6 km/h (3 Bft)
26.01.2015 20:34 4,2 C 2,8 C 99 % 1018,9 hPa 0,0 l/m 0 min 0 min 0 W/m 20,9 km/h (4 Bft)
26.01.2015 20:36 4,2 C 2,8 C 99 % 1018,9 hPa 0,0 l/m 0 min 0 min 0 W/m 14,6 km/h (3 Bft)
26.01.2015 20:38 4,2 C 2,8 C 99 % 1018,9 hPa 0,0 l/m 0 min 0 min 0 W/m 12,6 km/h (3 Bft)
26.01.2015 20:40 4,2 C 2,8 C 99 % 1018,9 hPa 0,0 l/m 0 min 0 min 0 W/m 14,6 km/h (3 Bft)
26.01.2015 20:42 4,2 C 2,8 C 99 % 1018,9 hPa 0,0 l/m 0 min 0 min 0 W/m 12,6 km/h (3 Bft)
26.01.2015 20:44 4,2 C 2,8 C 99 % 1018,9 hPa 0,0 l/m 0 min 0 min 0 W/m 10,5 km/h (2 Bft)
26.01.2015 20:46 4,2 C 2,8 C 99 % 1018,9 hPa 0,0 l/m 0 min 2 min 0 W/m 12,6 km/h (3 Bft)
26.01.2015 20:48 4,2 C 2,8 C 99 % 1018,9 hPa 0,0 l/m 0 min 0 min 0 W/m 10,5 km/h (2 Bft)
26.01.2015 20:50 4,2 C 2,8 C 99 % 1019,0 hPa 0,0 l/m 0 min 0 min 0 W/m 10,5 km/h (2 Bft)
26.01.2015 20:52 4,2 C 2,8 C 99 % 1019,1 hPa 0,0 l/m 0 min 0 min 0 W/m 10,5 km/h (2 Bft)
26.01.2015 20:54 4,2 C 2,8 C 99 % 1019,1 hPa 0,0 l/m 0 min 0 min 0 W/m 12,6 km/h (3 Bft)
26.01.2015 20:56 4,2 C 2,8 C 99 % 1019,0 hPa 0,0 l/m 0 min 0 min 0 W/m 6,3 km/h (2 Bft)
26.01.2015 20:58 4,2 C 2,8 C 99 % 1019,1 hPa 0,0 l/m 0 min 0 min 0 W/m 10,5 km/h (2 Bft)
26.01.2015 21:00 4,2 C 2,8 C 99 % 1019,1 hPa 0,0 l/m 0 min 0 min 0 W/m 10,5 km/h (2 Bft)
26.01.2015 21:02 4,2 C 2,8 C 99 % 1019,0 hPa 0,0 l/m 0 min 0 min 0 W/m 10,5 km/h (2 Bft)
26.01.2015 21:04 4,2 C 2,8 C 98 % 1018,9 hPa 0,0 l/m 0 min 0 min 0 W/m 8,4 km/h (2 Bft)
26.01.2015 21:06 4,2 C 2,8 C 98 % 1019,0 hPa 0,0 l/m 0 min 0 min 0 W/m 10,5 km/h (2 Bft)
26.01.2015 21:08 4,2 C 2,8 C 98 % 1019,0 hPa 0,0 l/m 0 min 2 min 0 W/m 10,5 km/h (2 Bft)
26.01.2015 21:10 4,2 C 2,8 C 98 % 1019,0 hPa 0,0 l/m 0 min 2 min 0 W/m 6,3 km/h (2 Bft)
26.01.2015 21:12 4,2 C 2,8 C 98 % 1018,9 hPa 0,0 l/m 0 min 2 min 0 W/m 8,4 km/h (2 Bft)
26.01.2015 21:14 4,2 C 2,8 C 98 % 1019,0 hPa 0,0 l/m 0 min 2 min 0 W/m 10,5 km/h (2 Bft)
26.01.2015 21:16 4,2 C 2,8 C 98 % 1019,1 hPa 0,0 l/m 0 min 2 min 0 W/m 12,6 km/h (3 Bft)
26.01.2015 21:18 4,2 C 2,8 C 98 % 1019,0 hPa 0,0 l/m 0 min 2 min 0 W/m 10,5 km/h (2 Bft)
26.01.2015 21:20 4,2 C 2,8 C 98 % 1019,1 hPa 0,0 l/m 0 min 2 min 0 W/m 8,4 km/h (2 Bft)
26.01.2015 21:22 4,2 C 2,8 C 98 % 1019,2 hPa 0,0 l/m 0 min 2 min 0 W/m 12,6 km/h (3 Bft)
26.01.2015 21:24 4,2 C 2,8 C 98 % 1019,2 hPa 0,2 l/m 0 min 2 min 0 W/m 14,6 km/h (3 Bft)
26.01.2015 21:26 4,2 C 2,8 C 98 % 1019,2 hPa 0,2 l/m 0 min 2 min 0 W/m 20,9 km/h (4 Bft)
26.01.2015 21:28 4,2 C 2,8 C 98 % 1019,1 hPa 0,2 l/m 0 min 2 min 0 W/m 31,4 km/h (5 Bft)
26.01.2015 21:30 4,2 C 2,8 C 98 % 1019,2 hPa 0,0 l/m 0 min 2 min 0 W/m 29,3 km/h (5 Bft)
26.01.2015 21:32 4,2 C 2,2 C 98 % 1019,2 hPa 0,0 l/m 0 min 2 min 0 W/m 18,8 km/h (3 Bft)
26.01.2015 21:34 4,1 C 2,2 C 98 % 1019,2 hPa 0,0 l/m 0 min 2 min 0 W/m 27,2 km/h (4 Bft)
26.01.2015 21:36 4,1 C 2,8 C 98 % 1019,2 hPa 0,0 l/m 0 min 2 min 0 W/m 29,3 km/h (5 Bft)
26.01.2015 21:38 4,1 C 2,8 C 98 % 1019,2 hPa 0,0 l/m 0 min 2 min 0 W/m 25,1 km/h (4 Bft)
26.01.2015 21:40 4,0 C 2,8 C 98 % 1019,2 hPa 0,0 l/m 0 min 2 min 0 W/m 16,7 km/h (3 Bft)
26.01.2015 21:42 4,0 C 2,8 C 98 % 1019,2 hPa 0,0 l/m 0 min 0 min 0 W/m 12,6 km/h (3 Bft)
26.01.2015 21:44 4,0 C 2,8 C 98 % 1019,3 hPa 0,0 l/m 0 min 0 min 0 W/m 10,5 km/h (2 Bft)
26.01.2015 21:46 4,0 C 2,8 C 98 % 1019,3 hPa 0,0 l/m 0 min 0 min 0 W/m 14,6 km/h (3 Bft)
26.01.2015 21:48 4,0 C 2,2 C 98 % 1019,2 hPa 0,0 l/m 0 min 0 min 0 W/m 12,6 km/h (3 Bft)
26.01.2015 21:50 4,0 C 2,2 C 98 % 1019,3 hPa 0,0 l/m 0 min 0 min 0 W/m 14,6 km/h (3 Bft)
26.01.2015 21:52 4,0 C 2,8 C 98 % 1019,3 hPa 0,0 l/m 0 min 0 min 0 W/m 14,6 km/h (3 Bft)
26.01.2015 21:54 4,0 C 2,2 C 98 % 1019,3 hPa 0,0 l/m 0 min 0 min 0 W/m 12,6 km/h (3 Bft)
26.01.2015 21:56 4,0 C 2,2 C 98 % 1019,3 hPa 0,0 l/m 0 min 0 min 0 W/m 14,6 km/h (3 Bft)
26.01.2015 21:58 4,0 C 2,2 C 98 % 1019,3 hPa 0,0 l/m 0 min 0 min 0 W/m 12,6 km/h (3 Bft)
26.01.2015 22:00 4,0 C 2,2 C 98 % 1019,4 hPa 0,0 l/m 0 min 0 min 0 W/m 14,6 km/h (3 Bft)
26.01.2015 22:02 4,0 C 2,2 C 98 % 1019,3 hPa 0,0 l/m 0 min 0 min 0 W/m 10,5 km/h (2 Bft)
26.01.2015 22:04 4,0 C 2,2 C 98 % 1019,4 hPa 0,0 l/m 0 min 0 min 0 W/m 14,6 km/h (3 Bft)
26.01.2015 22:06 4,0 C 2,2 C 98 % 1019,4 hPa 0,0 l/m 0 min 0 min 0 W/m 14,6 km/h (3 Bft)
26.01.2015 22:08 4,0 C 2,2 C 98 % 1019,5 hPa 0,0 l/m 0 min 0 min 0 W/m 8,4 km/h (2 Bft)
26.01.2015 22:10 4,0 C 2,2 C 98 % 1019,5 hPa 0,0 l/m 0 min 0 min 0 W/m 6,3 km/h (2 Bft)
26.01.2015 22:12 4,0 C 2,8 C 98 % 1019,5 hPa 0,0 l/m 0 min 2 min 0 W/m 12,6 km/h (3 Bft)
26.01.2015 22:14 4,0 C 2,2 C 98 % 1019,4 hPa 0,0 l/m 0 min 0 min 0 W/m 6,3 km/h (2 Bft)
26.01.2015 22:16 4,0 C 2,2 C 98 % 1019,4 hPa 0,0 l/m 0 min 0 min 0 W/m 6,3 km/h (2 Bft)
26.01.2015 22:18 4,0 C 2,2 C 98 % 1019,5 hPa 0,0 l/m 0 min 2 min 0 W/m 8,4 km/h (2 Bft)
26.01.2015 22:20 4,0 C 2,2 C 98 % 1019,5 hPa 0,2 l/m 0 min 2 min 0 W/m 8,4 km/h (2 Bft)
26.01.2015 22:22 4,0 C 2,8 C 98 % 1019,7 hPa 0,0 l/m 0 min 2 min 0 W/m 20,9 km/h (4 Bft)
26.01.2015 22:24 4,0 C 2,8 C 98 % 1019,6 hPa 0,0 l/m 0 min 2 min 0 W/m 23,0 km/h (4 Bft)
26.01.2015 22:26 4,0 C 2,8 C 98 % 1019,7 hPa 0,0 l/m 0 min 2 min 0 W/m 20,9 km/h (4 Bft)
26.01.2015 22:28 4,0 C 2,8 C 98 % 1019,7 hPa 0,0 l/m 0 min 2 min 0 W/m 14,6 km/h (3 Bft)
26.01.2015 22:30 4,0 C 2,2 C 98 % 1019,8 hPa 0,0 l/m 0 min 2 min 0 W/m 8,4 km/h (2 Bft)
26.01.2015 22:32 4,0 C 2,2 C 98 % 1019,8 hPa 0,0 l/m 0 min 2 min 0 W/m 14,6 km/h (3 Bft)
26.01.2015 22:34 4,0 C 2,2 C 98 % 1019,8 hPa 0,0 l/m 0 min 2 min 0 W/m 20,9 km/h (4 Bft)
26.01.2015 22:36 4,0 C 2,2 C 98 % 1019,7 hPa 0,0 l/m 0 min 2 min 0 W/m 16,7 km/h (3 Bft)
26.01.2015 22:38 4,0 C 2,2 C 98 % 1019,8 hPa 0,0 l/m 0 min 2 min 0 W/m 29,3 km/h (5 Bft)
26.01.2015 22:40 4,0 C 2,2 C 98 % 1019,8 hPa 0,0 l/m 0 min 2 min 0 W/m 14,6 km/h (3 Bft)
26.01.2015 22:42 3,9 C 2,8 C 98 % 1019,8 hPa 0,0 l/m 0 min 2 min 0 W/m 25,1 km/h (4 Bft)
26.01.2015 22:44 3,9 C 2,8 C 98 % 1019,9 hPa 0,0 l/m 0 min 2 min 0 W/m 29,3 km/h (5 Bft)
26.01.2015 22:46 3,9 C 2,8 C 98 % 1019,8 hPa 0,0 l/m 0 min 2 min 0 W/m 27,2 km/h (4 Bft)
26.01.2015 22:48 4,0 C 2,8 C 98 % 1019,9 hPa 0,0 l/m 0 min 2 min 0 W/m 23,0 km/h (4 Bft)
26.01.2015 22:50 4,0 C 2,8 C 98 % 1019,9 hPa 0,0 l/m 0 min 0 min 0 W/m 25,1 km/h (4 Bft)
26.01.2015 22:52 4,0 C 2,2 C 98 % 1019,9 hPa 0,0 l/m 0 min 0 min 0 W/m 20,9 km/h (4 Bft)
26.01.2015 22:54 4,0 C 2,2 C 98 % 1019,9 hPa 0,0 l/m 0 min 0 min 0 W/m 16,7 km/h (3 Bft)
26.01.2015 22:56 4,0 C 2,2 C 98 % 1019,9 hPa 0,0 l/m 0 min 0 min 0 W/m 25,1 km/h (4 Bft)
26.01.2015 22:58 3,9 C 2,2 C 98 % 1019,9 hPa 0,0 l/m 0 min 0 min 0 W/m 12,6 km/h (3 Bft)
26.01.2015 23:00 3,9 C 2,2 C 98 % 1019,9 hPa 0,0 l/m 0 min 0 min 0 W/m 12,6 km/h (3 Bft)
26.01.2015 23:02 3,9 C 2,2 C 98 % 1020,0 hPa 0,0 l/m 0 min 0 min 0 W/m 10,5 km/h (2 Bft)
26.01.2015 23:04 3,9 C 1,7 C 98 % 1019,9 hPa 0,0 l/m 0 min 0 min 0 W/m 16,7 km/h (3 Bft)
26.01.2015 23:06 3,9 C 1,7 C 98 % 1020,0 hPa 0,0 l/m 0 min 0 min 0 W/m 14,6 km/h (3 Bft)
26.01.2015 23:08 3,9 C 1,7 C 98 % 1020,1 hPa 0,0 l/m 0 min 0 min 0 W/m 14,6 km/h (3 Bft)
26.01.2015 23:10 3,8 C 1,7 C 98 % 1020,0 hPa 0,0 l/m 0 min 0 min 0 W/m 10,5 km/h (2 Bft)
26.01.2015 23:12 3,8 C 1,7 C 98 % 1020,1 hPa 0,0 l/m 0 min 0 min 0 W/m 14,6 km/h (3 Bft)
26.01.2015 23:14 3,8 C 1,7 C 98 % 1020,1 hPa 0,0 l/m 0 min 0 min 0 W/m 18,8 km/h (3 Bft)
26.01.2015 23:16 3,7 C 1,7 C 98 % 1020,1 hPa 0,0 l/m 0 min 0 min 0 W/m 18,8 km/h (3 Bft)
26.01.2015 23:18 3,7 C 1,7 C 98 % 1020,0 hPa 0,0 l/m 0 min 0 min 0 W/m 18,8 km/h (3 Bft)
26.01.2015 23:20 3,7 C 1,7 C 98 % 1020,1 hPa 0,0 l/m 0 min 0 min 0 W/m 16,7 km/h (3 Bft)
26.01.2015 23:22 3,7 C 2,2 C 98 % 1020,1 hPa 0,0 l/m 0 min 0 min 0 W/m 14,6 km/h (3 Bft)
26.01.2015 23:24 3,7 C 2,2 C 98 % 1020,2 hPa 0,0 l/m 0 min 0 min 0 W/m 14,6 km/h (3 Bft)
26.01.2015 23:26 3,7 C 2,2 C 98 % 1020,2 hPa 0,0 l/m 0 min 0 min 0 W/m 18,8 km/h (3 Bft)
26.01.2015 23:28 3,6 C 1,7 C 98 % 1020,1 hPa 0,0 l/m 0 min 0 min 0 W/m 18,8 km/h (3 Bft)
26.01.2015 23:30 3,6 C 1,7 C 98 % 1020,1 hPa 0,0 l/m 0 min 0 min 0 W/m 20,9 km/h (4 Bft)
26.01.2015 23:32 3,6 C 1,7 C 97 % 1020,1 hPa 0,0 l/m 0 min 0 min 0 W/m 18,8 km/h (3 Bft)
26.01.2015 23:34 3,6 C 1,7 C 97 % 1020,2 hPa 0,0 l/m 0 min 0 min 0 W/m 18,8 km/h (3 Bft)
26.01.2015 23:36 3,6 C 1,7 C 97 % 1020,2 hPa 0,0 l/m 0 min 0 min 0 W/m 14,6 km/h (3 Bft)
26.01.2015 23:38 3,6 C 1,7 C 97 % 1020,2 hPa 0,0 l/m 0 min 0 min 0 W/m 14,6 km/h (3 Bft)
26.01.2015 23:40 3,6 C 1,7 C 97 % 1020,2 hPa 0,0 l/m 0 min 0 min 0 W/m 12,6 km/h (3 Bft)
26.01.2015 23:42 3,5 C 1,7 C 97 % 1020,1 hPa 0,0 l/m 0 min 0 min 0 W/m 16,7 km/h (3 Bft)
26.01.2015 23:44 3,5 C 1,7 C 97 % 1020,1 hPa 0,0 l/m 0 min 0 min 0 W/m 14,6 km/h (3 Bft)
26.01.2015 23:46 3,5 C 1,7 C 97 % 1020,2 hPa 0,0 l/m 0 min 0 min 0 W/m 16,7 km/h (3 Bft)
26.01.2015 23:48 3,4 C 1,7 C 97 % 1020,3 hPa 0,0 l/m 0 min 0 min 0 W/m 12,6 km/h (3 Bft)
26.01.2015 23:50 3,4 C 1,7 C 97 % 1020,3 hPa 0,0 l/m 0 min 0 min 0 W/m 20,9 km/h (4 Bft)
26.01.2015 23:52 3,4 C 1,1 C 97 % 1020,3 hPa 0,0 l/m 0 min 0 min 0 W/m 12,6 km/h (3 Bft)
26.01.2015 23:54 3,4 C 1,1 C 97 % 1020,3 hPa 0,0 l/m 0 min 0 min 0 W/m 16,7 km/h (3 Bft)
26.01.2015 23:56 3,3 C 1,1 C 97 % 1020,4 hPa 0,0 l/m 0 min 0 min 0 W/m 14,6 km/h (3 Bft)
26.01.2015 23:58 3,3 C 1,1 C 97 % 1020,3 hPa 0,0 l/m 0 min 0 min 0 W/m 10,5 km/h (2 Bft)
_ Min-Zeit 00:00 00:00 23:32 15:46 - - - - 09:04
Minimum _ 2,2 C 1,1 C 97 % 1016,3 hPa - - - - 4,2 km/h (1 Bft)
_ Max-Zeit 17:28 17:10 09:10 00:20 00:26 00:00 01:18 14:54 18:54
Maximum _ 6,3 C 5,0 C 99 % 1026,4 hPa 0,2 l/m 0 min 2 min 56 W/m 31,4 km/h
W-NW (5 Bft)
Durchschnitt _ 3,8 C 2,6 C 98 % 1020,5 hPa #7,6 l/m #0 min. #11:04 h 28 W/m 15,1 km/h (3 Bft)
© 2015 W. Hausmann